Another Hard Day at the Office Weather Stats

 
 
 

High monthly outside Temperature, 22.8 , C
Low monthly outside Temperature, -1.0 , C
High yearly outside Temperature, 30.9 , C
Low yearly outside Temperature, -2.2 , C

Low monthly barometer, 1001.1 , mb
High monthly barometer, 1028.0 , mb
Low yearly barometer, 975.0 , mb
High yearly barometer 1041.1 , mb

High wind speed, 25.0 , mph
Time of High wind speed, 21:37 , mph
High monthly wind speed, 47.0 , mph
High yearly wind speed, 55.0 , mph

 

 




3126
                    Temp     Hi    Low   Out    Dew  Wind  Wind   Wind    Hi    Hi   Wind   Heat    THW                Rain    Heat    Cool    In     In    In     In     In   In Air  Wind  Wind    ISS   Arc.
  Date    Time     Out   Temp   Temp   Hum    Pt. Speed   Dir    Run Speed   Dir  Chill  Index  Index   Bar    Rain  Rate    D-D     D-D    Temp   Hum    Dew   Heat    EMC Density  Samp   Tx   Recept  Int.
---------------------------------------------------------------------------------------------------------------------------------------------------------------------------------------------------------------
22/01/19   0:05    6.9    6.9    6.8    86    4.8  19.0     S   1.58  30.0     S    2.1    6.9    2.1  1008.9  0.00  0.00   0.040   0.000   18.1    44    5.6   16.8   8.37  .0747    114    1    100.0    5 
22/01/19   0:10    7.1    7.1    6.9    86    4.9  24.0     S   2.00  30.0     S    1.7    7.0    1.6  1008.6  0.00  0.00   0.039   0.000   18.3    44    5.8   17.0   8.35  .0746    115    1    100.0    5 
22/01/19   0:15    7.2    7.2    7.1    86    5.0  23.0     S   1.92  31.0   SSW    1.9    7.1    1.8  1008.5  0.00  0.00   0.039   0.000   18.4    43    5.6   17.2   8.25  .0746    117    1    100.0    5 
22/01/19   0:20    7.3    7.3    7.2    86    5.1  23.0   SSW   1.92  30.0     S    2.0    7.2    1.9  1008.4  0.00  0.00   0.038   0.000   18.3    45    6.2   17.1   8.55  .0746    115    1    100.0    5 
22/01/19   0:25    7.2    7.3    7.2    86    5.0  23.0   SSW   1.92  30.0   SSW    1.9    7.1    1.8  1008.2  0.00  0.00   0.039   0.000   18.3    44    5.9   17.1   8.35  .0746    117    1    100.0    5 
22/01/19   0:30    7.2    7.2    7.2    86    5.0  22.0   SSW   1.83  28.0   SSW    2.0    7.1    1.9  1008.2  0.00  0.00   0.039   0.000   18.4    43    5.6   17.2   8.25  .0746    117    1    100.0    5 
22/01/19   0:35    7.2    7.2    7.2    86    5.0  20.0   SSW   1.67  26.0   SSW    2.3    7.1    2.2  1008.1  0.00  0.00   0.039   0.000   18.6    43    5.8   17.3   8.25  .0745    117    1    100.0    5 
22/01/19   0:40    7.2    7.2    7.2    86    5.0  21.0   SSW   1.75  27.0   SSW    2.1    7.1    2.1  1007.9  0.00  0.00   0.039   0.000   18.8    43    6.0   17.6   8.25  .0744    117    1    100.0    5 
22/01/19   0:45    7.2    7.2    7.2    86    5.0  20.0   SSW   1.67  26.0   SSW    2.3    7.2    2.3  1007.8  0.00  0.00   0.039   0.000   19.1    42    5.8   17.7   8.12  .0744    115    1    100.0    5 
22/01/19   0:50    7.3    7.3    7.2    86    5.1  20.0   SSW   1.67  26.0     S    2.4    7.2    2.3  1007.6  0.00  0.00   0.038   0.000   19.2    42    6.0   17.9   8.12  .0743    115    1    100.0    5 
22/01/19   0:55    7.2    7.3    7.2    86    5.0  23.0   SSW   1.92  32.0   SSW    1.9    7.1    1.8  1007.4  0.00  0.00   0.039   0.000   19.3    41    5.7   18.0   7.95  .0743    117    1    100.0    5 
22/01/19   1:00    7.2    7.2    7.2    86    5.0  22.0   SSW   1.83  31.0   SSW    2.0    7.1    1.9  1007.3  0.00  0.00   0.039   0.000   19.4    41    5.8   18.1   7.95  .0742    117    1    100.0    5 
22/01/19   1:05    7.1    7.2    7.1    86    4.9  23.0   SSW   1.92  32.0   SSW    1.8    7.1    1.8  1007.0  0.00  0.00   0.039   0.000   19.6    41    5.9   18.2   7.95  .0742    117    1    100.0    5 
22/01/19   1:10    7.1    7.1    7.1    86    4.9  23.0   SSW   1.92  29.0   SSW    1.8    7.0    1.7  1006.8  0.00  0.00   0.039   0.000   19.6    40    5.6   18.2   7.80  .0742    117    1    100.0    5 
22/01/19   1:15    7.1    7.1    7.1    87    5.0  22.0   SSW   1.83  30.0     S    1.9    7.1    1.9  1006.7  0.00  0.00   0.039   0.000   19.7    40    5.7   18.4   7.80  .0741    117    1    100.0    5 
22/01/19   1:20    7.1    7.1    7.1    87    5.0  24.0   SSW   2.00  29.0     S    1.7    7.1    1.7  1006.5  0.01  0.00   0.039   0.000   19.8    40    5.8   18.5   7.80  .0741    118    1    100.0    5 
22/01/19   1:25    7.1    7.1    7.1    87    5.1  25.0     S   2.08  32.0   SSW    1.6    7.1    1.6  1006.3  0.00  0.00   0.039   0.000   19.9    40    5.9   18.6   7.79  .0740    117    1    100.0    5 
22/01/19   1:30    7.1    7.2    7.1    87    5.1  23.0   SSW   1.92  28.0   SSW    1.8    7.1    1.8  1006.4  0.00  0.00   0.039   0.000   20.0    40    6.0   18.7   7.79  .0740    116    1    100.0    5 
22/01/19   1:35    7.1    7.2    7.1    87    5.0  23.0     S   1.92  30.0     S    1.8    7.1    1.8  1006.2  0.00  0.00   0.039   0.000   20.1    40    6.0   18.7   7.79  .0740    117    1    100.0    5 
22/01/19   1:40    7.1    7.1    7.1    87    5.1  22.0   SSW   1.83  29.0   SSW    1.9    7.1    1.9  1006.1  0.00  0.00   0.039   0.000   20.1    40    6.1   18.8   7.79  .0739    115    1    100.0    5 
22/01/19   1:45    7.2    7.2    7.1    87    5.1  24.0   SSW   2.00  30.0   SSW    1.8    7.2    1.8  1005.9  0.01  0.00   0.039   0.000   20.2    40    6.1   18.8   7.78  .0739    117    1    100.0    5 
22/01/19   1:50    7.1    7.2    7.1    87    5.1  21.0   SSW   1.75  29.0     S    2.1    7.1    2.1  1005.8  0.00  0.00   0.039   0.000   20.2    40    6.2   18.9   7.78  .0739    116    1    100.0    5 
22/01/19   1:55    7.1    7.1    7.1    87    5.0  21.0   SSW   1.75  27.0   SSW    2.0    7.1    2.0  1005.7  0.00  0.00   0.039   0.000   20.3    40    6.2   18.9   7.78  .0739    116    1    100.0    5 
22/01/19   2:00    7.1    7.1    7.1    87    5.1  22.0   SSW   1.83  28.0   SSW    1.9    7.1    1.9  1005.6  0.00  0.00   0.039   0.000   20.3    40    6.3   19.0   7.78  .0738    117    1    100.0    5 
22/01/19   2:05    7.1    7.1    7.1    87    5.0  23.0   SSW   1.92  29.0   SSW    1.8    7.1    1.8  1005.4  0.01  0.00   0.039   0.000   20.3    40    6.3   19.0   7.78  .0738    117    1    100.0    5 
22/01/19   2:10    7.0    7.1    7.0    87    5.0  21.0   SSW   1.75  29.0     S    1.9    7.0    1.9  1005.3  0.00  0.00   0.039   0.000   20.4    40    6.3   19.1   7.78  .0738    116    1    100.0    5 
22/01/19   2:15    7.0    7.1    7.0    87    5.0  21.0   SSW   1.75  28.0   SSW    1.9    7.0    1.9  1005.0  0.01  0.08   0.039   0.000   20.4    40    6.4   19.1   7.77  .0738    116    1    100.0    5 
22/01/19   2:20    7.0    7.1    7.0    87    5.0  22.0   SSW   1.83  28.0     S    1.8    7.0    1.8  1004.8  0.00  0.06   0.039   0.000   20.4    40    6.4   19.1   7.77  .0738    116    1    100.0    5 
22/01/19   2:25    7.0    7.0    7.0    87    5.0  24.0   SSW   2.00  30.0   SSW    1.6    7.0    1.6  1004.7  0.01  0.06   0.039   0.000   20.5    40    6.4   19.2   7.77  .0737    118    1    100.0    5 
22/01/19   2:30    7.0    7.1    7.0    87    5.0  23.0   SSW   1.92  29.0     S    1.7    7.0    1.7  1004.7  0.01  0.09   0.039   0.000   20.5    40    6.4   19.2   7.77  .0737    117    1    100.0    5 
22/01/19   2:35    7.0    7.0    7.0    87    5.0  24.0   SSW   2.00  30.0   SSW    1.6    7.0    1.6  1004.4  0.00  0.09   0.039   0.000   20.6    40    6.5   19.2   7.77  .0737    116    1    100.0    5 
22/01/19   2:40    6.9    7.0    6.9    87    4.9  24.0   SSW   2.00  33.0   SSW    1.6    6.9    1.6  1004.4  0.01  0.09   0.040   0.000   20.6    40    6.5   19.2   7.77  .0737    117    1    100.0    5 
22/01/19   2:45    6.5    6.9    6.5    87    4.5  24.0    SW   2.00  33.0    SW    1.0    6.5    1.0  1004.5  0.01  0.14   0.041   0.000   20.6    40    6.5   19.3   7.77  .0737    116    1    100.0    5 
22/01/19   2:50    6.3    6.5    6.3    87    4.3  23.0    SW   1.92  29.0    SW    0.9    6.3    0.9  1004.4  0.00  0.07   0.042   0.000   20.7    40    6.6   19.3   7.77  .0737    116    1    100.0    5 
22/01/19   2:55    6.3    6.4    6.3    87    4.3  17.0   WSW   1.42  26.0    SW    1.7    6.3    1.7  1004.5  0.02  0.13   0.042   0.000   20.7    40    6.6   19.3   7.76  .0737    116    1    100.0    5 
22/01/19   3:00    6.2    6.3    6.2    87    4.2   8.0     W   0.67  14.0   WSW    3.5    6.1    3.4  1004.5  0.00  0.11   0.042   0.000   20.8    40    6.7   19.4   7.76  .0736    117    1    100.0    5 
22/01/19   3:05    5.8    6.2    5.8    87    3.8   9.0     W   0.75  14.0     W    2.8    5.8    2.8  1004.4  0.01  0.11   0.043   0.000   20.8    40    6.7   19.4   7.76  .0736    115    1    100.0    5 
22/01/19   3:10    5.7    5.8    5.7    87    3.7   7.0     W   0.58  13.0     W    3.3    5.7    3.2  1004.3  0.01  0.15   0.044   0.000   20.9    40    6.8   19.4   7.76  .0736    117    1    100.0    5 
22/01/19   3:15    5.7    5.7    5.7    87    3.7   4.0   WSW   0.33  10.0   WSW    4.4    5.7    4.4  1004.1  0.00  0.06   0.044   0.000   20.9    40    6.8   19.4   7.76  .0736    117    1    100.0    5 
22/01/19   3:20    5.7    5.7    5.7    87    3.7   2.0   WSW   0.17   7.0   WSW    5.7    5.6    5.6  1004.0  0.01  0.06   0.044   0.000   20.9    40    6.8   19.5   7.76  .0736    116    1    100.0    5 
22/01/19   3:25    5.7    5.7    5.7    87    3.7   1.0   WSW   0.08   6.0   WSW    5.7    5.6    5.6  1004.0  0.00  0.05   0.044   0.000   21.0    40    6.9   19.6   7.75  .0735    117    1    100.0    5 
22/01/19   3:30    5.6    5.7    5.6    87    3.6   2.0   WSW   0.17   5.0   WSW    5.6    5.6    5.6  1003.8  0.01  0.06   0.044   0.000   21.1    40    6.9   19.6   7.75  .0735    117    1    100.0    5 
22/01/19   3:35    5.6    5.6    5.6    88    3.8   5.0   WSW   0.42   9.0   WSW    3.8    5.6    3.8  1003.9  0.00  0.06   0.044   0.000   21.1    40    7.0   19.6   7.75  .0735    117    1    100.0    5 
22/01/19   3:40    5.7    5.7    5.6    88    3.8   6.0   WSW   0.50  11.0   WSW    3.5    5.6    3.4  1004.0  0.00  0.05   0.044   0.000   21.1    40    7.0   19.6   7.75  .0735    117    1    100.0    5 
22/01/19   3:45    5.7    5.7    5.7    88    3.9   8.0     W   0.67  16.0     W    3.0    5.7    2.9  1004.0  0.01  0.05   0.044   0.000   21.2    39    6.7   19.6   7.65  .0735    117    1    100.0    5 
22/01/19   3:50    5.4    5.7    5.4    88    3.6   7.0     W   0.58  14.0     W    2.9    5.4    2.9  1003.9  0.00  0.04   0.045   0.000   21.2    39    6.7   19.6   7.65  .0735    116    1    100.0    5 
22/01/19   3:55    5.1    5.4    5.1    88    3.2   5.0   WNW   0.42  10.0    NW    3.2    5.0    3.1  1003.9  0.00  0.04   0.046   0.000   21.2    39    6.7   19.7   7.65  .0735    117    1    100.0    5 
22/01/19   4:00    4.8    5.1    4.8    88    3.0   3.0    NW   0.25   7.0    NW    3.9    4.7    3.9  1004.0  0.00  0.04   0.047   0.000   21.3    39    6.8   19.8   7.64  .0735    116    1    100.0    5 
22/01/19   4:05    4.6    4.8    4.6    87    2.6   4.0   WNW   0.33   8.0   WNW    3.2    4.5    3.1  1004.1  0.00  0.00   0.048   0.000   21.3    39    6.8   19.8   7.64  .0735    117    1    100.0    5 
22/01/19   4:10    4.6    4.7    4.6    88    2.7   2.0   WNW   0.17   8.0   WNW    4.4    4.5    4.4  1004.0  0.00  0.00   0.048   0.000   21.3    39    6.8   19.8   7.64  .0735    117    1    100.0    5 
22/01/19   4:15    4.5    4.6    4.5    88    2.7   2.0   WNW   0.17   7.0   WNW    4.4    4.4    4.3  1004.1  0.00  0.00   0.048   0.000   21.3    39    6.8   19.8   7.64  .0735    116    1    100.0    5 
22/01/19   4:20    4.4    4.4    4.4    88    2.6   2.0   WNW   0.17   8.0   WNW    4.3    4.3    4.2  1003.9  0.00  0.00   0.048   0.000   21.4    39    6.9   19.9   7.64  .0734    117    1    100.0    5 
22/01/19   4:25    4.3    4.4    4.3    88    2.5   4.0   WNW   0.33   8.0   WNW    2.8    4.3    2.8  1004.0  0.00  0.00   0.049   0.000   21.4    39    6.9   19.9   7.64  .0734    116    1    100.0    5 
22/01/19   4:30    4.3    4.3    4.3    88    2.5   3.0   WNW   0.25   8.0   WNW    3.3    4.2    3.3  1004.0  0.00  0.00   0.049   0.000   21.4    39    6.9   20.0   7.64  .0734    116    1    100.0    5 
22/01/19   4:35    4.2    4.3    4.2    88    2.4   4.0   WNW   0.33   8.0   WNW    2.7    4.2    2.7  1003.9  0.00  0.00   0.049   0.000   21.5    39    7.0   20.1   7.64  .0734    118    1    100.0    5 
22/01/19   4:40    4.2    4.2    4.2    88    2.4   1.0   WNW   0.08   5.0   WNW    4.2    4.1    4.1  1003.9  0.00  0.00   0.049   0.000   21.5    39    7.0   20.1   7.64  .0734    117    1    100.0    5 
22/01/19   4:45    4.1    4.2    4.1    88    2.3   2.0   WNW   0.17   5.0   WNW    3.9    4.1    3.9  1004.0  0.00  0.00   0.049   0.000   21.6    39    7.0   20.2   7.63  .0734    117    1    100.0    5 
22/01/19   4:50    4.1    4.2    4.1    88    2.3   2.0   WNW   0.17   6.0   WNW    3.9    4.1    3.9  1003.9  0.00  0.00   0.049   0.000   21.6    39    7.1   20.2   7.63  .0734    117    1    100.0    5 
22/01/19   4:55    4.1    4.1    4.1    88    2.2   2.0   WNW   0.17   5.0   WNW    3.9    4.0    3.8  1003.9  0.00  0.00   0.050   0.000   21.6    39    7.1   20.2   7.63  .0734    117    1    100.0    5 
22/01/19   5:00    4.0    4.1    4.0    88    2.2   0.0   WNW   0.00   3.0   WNW    4.0    3.9    3.9  1003.9  0.00  0.00   0.050   0.000   21.6    39    7.1   20.2   7.63  .0734    117    1    100.0    5 
22/01/19   5:05    3.9    4.0    3.9    88    2.1   2.0   WNW   0.17   6.0   WNW    3.8    3.9    3.7  1003.9  0.00  0.00   0.050   0.000   21.7    39    7.1   20.3   7.63  .0734    115    1    100.0    5 
22/01/19   5:10    3.9    3.9    3.9    88    2.1   2.0   WNW   0.17   6.0   WNW    3.8    3.9    3.7  1003.9  0.00  0.00   0.050   0.000   21.7    38    6.7   20.2   7.51  .0734    115    1    100.0    5 
22/01/19   5:15    3.9    3.9    3.9    88    2.1   3.0   WNW   0.25   8.0   WNW    2.9    3.8    2.8  1003.8  0.00  0.00   0.050   0.000   21.7    38    6.7   20.2   7.51  .0734    117    1    100.0    5 
22/01/19   5:20    3.9    3.9    3.8    88    2.1   2.0   WNW   0.17   5.0   WNW    3.7    3.8    3.7  1003.8  0.00  0.00   0.050   0.000   21.7    38    6.8   20.3   7.51  .0733    116    1    100.0    5 
22/01/19   5:25    3.8    3.9    3.8    88    2.0   1.0   WNW   0.08   6.0   WNW    3.8    3.8    3.8  1003.8  0.00  0.00   0.050   0.000   21.7    38    6.8   20.3   7.51  .0733    117    1    100.0    5 
22/01/19   5:30    3.8    3.8    3.8    88    2.0   2.0   WNW   0.17   6.0   WNW    3.6    3.7    3.5  1003.8  0.00  0.00   0.051   0.000   21.7    38    6.8   20.3   7.51  .0733    113    1     99.1    5 
22/01/19   5:35    3.7    3.8    3.7    88    1.9   3.0   WNW   0.25   8.0   WNW    2.7    3.7    2.7  1003.8  0.00  0.00   0.051   0.000   21.7    38    6.8   20.3   7.51  .0733    118    1    100.0    5 
22/01/19   5:40    3.7    3.7    3.7    88    1.9   2.0   WNW   0.17   7.0   WNW    3.4    3.6    3.4  1003.8  0.00  0.00   0.051   0.000   21.8    38    6.8   20.4   7.50  .0733    117    1    100.0    5 
22/01/19   5:45    3.7    3.7    3.7    88    1.9   2.0   WNW   0.17   7.0   WNW    3.4    3.6    3.4  1003.9  0.00  0.00   0.051   0.000   21.8    38    6.8   20.4   7.50  .0733    117    1    100.0    5 
22/01/19   5:50    3.6    3.7    3.6    88    1.8   2.0   WNW   0.17   9.0   WNW    3.4    3.6    3.3  1003.9  0.00  0.00   0.051   0.000   21.8    38    6.9   20.5   7.50  .0733    116    1    100.0    5 
22/01/19   5:55    3.5    3.6    3.5    88    1.7   1.0   WNW   0.08   7.0   WNW    3.5    3.4    3.4  1003.9  0.00  0.00   0.052   0.000   21.9    38    6.9   20.6   7.49  .0733    116    1    100.0    5 
22/01/19   6:00    3.4    3.6    3.4    88    1.6   2.0   WNW   0.17   6.0   WNW    3.2    3.4    3.2  1003.8  0.00  0.00   0.052   0.000   21.9    38    6.9   20.6   7.49  .0733    117    1    100.0    5 
22/01/19   6:05    3.4    3.4    3.4    88    1.6   1.0   WNW   0.08   6.0   WNW    3.4    3.3    3.3  1003.9  0.00  0.00   0.052   0.000   21.9    38    6.9   20.6   7.49  .0733    117    1    100.0    5 
22/01/19   6:10    3.3    3.4    3.3    88    1.5   0.0   WNW   0.00   5.0   WNW    3.3    3.2    3.2  1004.0  0.00  0.00   0.052   0.000   21.9    38    7.0   20.7   7.49  .0733    117    1    100.0    5 
22/01/19   6:15    3.2    3.3    3.2    88    1.4   1.0   WNW   0.08   5.0   WNW    3.2    3.2    3.2  1003.9  0.00  0.00   0.052   0.000   22.0    38    7.0   20.7   7.49  .0733    117    1    100.0    5 
22/01/19   6:20    3.1    3.2    3.1    88    1.3   3.0   WNW   0.25   7.0   WNW    2.1    3.1    2.0  1004.0  0.00  0.00   0.053   0.000   22.0    38    7.0   20.7   7.49  .0733    116    1    100.0    5 
22/01/19   6:25    3.1    3.1    3.1    88    1.3   3.0   WNW   0.25   8.0   WNW    1.9    3.0    1.9  1004.1  0.00  0.00   0.053   0.000   22.0    38    7.0   20.7   7.49  .0733    117    1    100.0    5 
22/01/19   6:30    3.0    3.1    3.0    88    1.2   1.0   WNW   0.08   6.0   WNW    3.0    2.9    2.9  1004.0  0.00  0.00   0.053   0.000   22.1    38    7.1   20.8   7.48  .0733    116    1    100.0    5 
22/01/19   6:35    2.9    2.9    2.9    88    1.1   3.0   WNW   0.25   8.0   WNW    1.8    2.8    1.7  1004.1  0.00  0.00   0.054   0.000   22.1    38    7.1   20.8   7.48  .0733    117    1    100.0    5 
22/01/19   6:40    2.8    2.9    2.8    88    1.0   3.0   WNW   0.25   7.0   WNW    1.7    2.8    1.7  1003.9  0.00  0.00   0.054   0.000   22.1    37    6.7   20.8   7.32  .0733    117    1    100.0    5 
22/01/19   6:45    2.8    2.8    2.8    88    1.0   3.0   WNW   0.25   8.0   WNW    1.7    2.7    1.6  1004.0  0.00  0.00   0.054   0.000   22.1    37    6.7   20.8   7.32  .0733    117    1    100.0    5 
22/01/19   6:50    2.7    2.8    2.7    88    0.9   4.0   WNW   0.33   9.0   WNW    0.9    2.7    0.9  1003.9  0.00  0.00   0.054   0.000   22.1    38    7.1   20.8   7.48  .0733    116    1    100.0    5 
22/01/19   6:55    2.7    2.7    2.7    88    0.9   3.0     W   0.25   9.0     W    1.5    2.6    1.4  1003.9  0.00  0.00   0.054   0.000   22.1    38    7.1   20.9   7.48  .0732    115    1    100.0    5 
22/01/19   7:00    2.6    2.7    2.6    88    0.8   1.0     W   0.08   6.0     W    2.6    2.6    2.6  1003.9  0.00  0.00   0.055   0.000   22.1    38    7.1   20.9   7.48  .0732    117    1    100.0    5 
22/01/19   7:05    2.6    2.6    2.6    88    0.8   0.0     W   0.00   3.0     W    2.6    2.5    2.5  1003.8  0.00  0.00   0.055   0.000   22.1    38    7.1   20.9   7.48  .0732    117    1    100.0    5 
22/01/19   7:10    2.5    2.6    2.5    88    0.7   0.0     W   0.00   4.0     W    2.5    2.4    2.4  1003.9  0.00  0.00   0.055   0.000   22.2    41    8.3   21.2   7.87  .0732    117    1    100.0    5 
22/01/19   7:15    2.4    2.5    2.4    88    0.7   0.0   ---   0.00   0.0   ---    2.4    2.4    2.4  1003.9  0.00  0.00   0.055   0.000   22.2    40    8.0   21.2   7.71  .0732    117    1    100.0    5 
22/01/19   7:20    2.3    2.4    2.3    88    0.5   0.0   ---   0.00   0.0   ---    2.3    2.3    2.3  1003.8  0.00  0.00   0.056   0.000   22.2    39    7.6   21.1   7.61  .0732    117    1    100.0    5 
22/01/19   7:25    2.3    2.3    2.3    88    0.5   0.0   ---   0.00   0.0   ---    2.3    2.2    2.2  1003.8  0.00  0.00   0.056   0.000   22.3    39    7.6   21.2   7.61  .0732    117    1    100.0    5 
22/01/19   7:30    2.2    2.3    2.2    88    0.4   0.0   ---   0.00   0.0   ---    2.2    2.2    2.2  1003.8  0.00  0.00   0.056   0.000   22.3    38    7.3   21.2   7.47  .0732    117    1    100.0    5 
22/01/19   7:35    2.2    2.2    2.2    88    0.4   0.0   ---   0.00   0.0   ---    2.2    2.1    2.1  1003.9  0.00  0.00   0.056   0.000   22.3    38    7.3   21.2   7.47  .0732    117    1    100.0    5 
22/01/19   7:40    2.1    2.2    2.1    88    0.3   0.0   ---   0.00   0.0   ---    2.1    2.1    2.1  1003.8  0.00  0.00   0.056   0.000   22.3    38    7.3   21.2   7.47  .0732    116    1    100.0    5 
22/01/19   7:45    2.0    2.1    2.0    88    0.2   0.0   ---   0.00   0.0   ---    2.0    1.9    1.9  1003.8  0.00  0.00   0.057   0.000   22.3    37    6.9   21.1   7.31  .0732    118    1    100.0    5 
22/01/19   7:50    1.9    2.0    1.9    88    0.2   0.0   ---   0.00   0.0   ---    1.9    1.9    1.9  1003.8  0.00  0.00   0.057   0.000   22.3    37    6.9   21.2   7.31  .0732    117    1    100.0    5 
22/01/19   7:55    1.8    1.9    1.8    88    0.1   0.0   ---   0.00   0.0   ---    1.8    1.8    1.8  1003.8  0.00  0.00   0.057   0.000   22.3    37    6.9   21.2   7.31  .0732    116    1    100.0    5 
22/01/19   8:00    1.7    1.8    1.7    88   -0.1   0.0   ---   0.00   0.0   ---    1.7    1.7    1.7  1003.8  0.00  0.00   0.058   0.000   22.3    37    6.9   21.2   7.31  .0732    116    1    100.0    5 
22/01/19   8:05    1.7    1.7    1.7    88   -0.1   0.0   ---   0.00   0.0   ---    1.7    1.6    1.6  1003.7  0.00  0.00   0.058   0.000   22.3    37    6.9   21.2   7.31  .0732    117    1    100.0    5 
22/01/19   8:10    1.7    1.7    1.7    88   -0.1   0.0     W   0.00   1.0     W    1.7    1.6    1.6  1003.7  0.00  0.00   0.058   0.000   22.3    37    6.9   21.2   7.31  .0732    116    1    100.0    5 
22/01/19   8:15    1.7    1.7    1.7    88   -0.1   0.0   ---   0.00   0.0   ---    1.7    1.6    1.6  1003.7  0.00  0.00   0.058   0.000   22.3    37    6.9   21.2   7.31  .0732    117    1    100.0    5 
22/01/19   8:20    1.7    1.7    1.7    88   -0.1   0.0   ---   0.00   0.0   ---    1.7    1.7    1.7  1003.7  0.00  0.00   0.058   0.000   22.3    37    6.9   21.2   7.31  .0732    117    1    100.0    5 
22/01/19   8:25    1.7    1.7    1.7    88   -0.1   0.0   ---   0.00   0.0   ---    1.7    1.7    1.7  1003.7  0.00  0.00   0.058   0.000   22.3    37    6.9   21.2   7.31  .0732    116    1    100.0    5 
22/01/19   8:30    1.7    1.7    1.7    88   -0.1   0.0   SSW   0.00   3.0   SSW    1.7    1.6    1.6  1003.8  0.00  0.00   0.058   0.000   22.3    37    6.9   21.2   7.31  .0732    117    1    100.0    5 
22/01/19   8:35    1.7    1.7    1.7    88   -0.1   1.0    SW   0.08   5.0    SW    1.7    1.7    1.7  1003.7  0.00  0.00   0.058   0.000   22.3    37    6.9   21.2   7.31  .0732    116    1    100.0    5 
22/01/19   8:40    1.7    1.7    1.7    88   -0.1   1.0    SW   0.08   4.0    SW    1.7    1.7    1.7  1003.7  0.00  0.00   0.058   0.000   22.3    37    6.9   21.2   7.31  .0732    117    1    100.0    5 
22/01/19   8:45    1.7    1.7    1.7    88   -0.1   1.0    SW   0.08   4.0    SW    1.7    1.7    1.7  1003.8  0.00  0.00   0.058   0.000   22.3    37    6.9   21.2   7.31  .0732    117    1    100.0    5 
22/01/19   8:50    1.8    1.8    1.7    88    0.0   2.0    SW   0.17   5.0    SW    1.4    1.7    1.3  1003.8  0.00  0.00   0.057   0.000   22.4    37    7.0   21.3   7.30  .0732    118    1    100.0    5 
22/01/19   8:55    1.8    1.8    1.8    88    0.1   2.0    SW   0.17   5.0    SW    1.4    1.8    1.4  1003.8  0.00  0.00   0.057   0.000   22.4    36    6.6   21.2   7.16  .0732    116    1    100.0    5 
22/01/19   9:00    1.9    1.9    1.8    88    0.2   1.0   WSW   0.08   5.0   WSW    1.9    1.9    1.9  1003.8  0.00  0.00   0.057   0.000   22.4    36    6.6   21.3   7.15  .0732    116    1    100.0    5 
22/01/19   9:05    2.1    2.1    1.9    88    0.3   1.0   WSW   0.08   5.0   WSW    2.1    2.0    2.0  1003.7  0.00  0.00   0.057   0.000   22.5    36    6.7   21.4   7.15  .0731    116    1    100.0    5 
22/01/19   9:10    2.1    2.1    2.0    88    0.3   0.0   WSW   0.00   3.0   WSW    2.1    2.1    2.1  1003.7  0.00  0.00   0.056   0.000   22.6    36    6.8   21.6   7.14  .0731    116    1    100.0    5 
22/01/19   9:15    2.2    2.2    2.1    88    0.4   1.0   WSW   0.08   5.0   WSW    2.2    2.1    2.1  1003.7  0.00  0.00   0.056   0.000   22.6    36    6.8   21.6   7.14  .0731    116    1    100.0    5 
22/01/19   9:20    2.3    2.3    2.2    88    0.5   1.0   WSW   0.08   4.0   WSW    2.3    2.2    2.2  1003.7  0.00  0.00   0.056   0.000   22.7    36    6.8   21.7   7.14  .0731    117    1    100.0    5 
22/01/19   9:25    2.4    2.4    2.3    88    0.6   1.0   WSW   0.08   5.0   WSW    2.4    2.3    2.3  1003.7  0.00  0.00   0.055   0.000   22.7    36    6.9   21.7   7.13  .0731    117    1    100.0    5 
22/01/19   9:30    2.5    2.5    2.4    88    0.7   0.0   WSW   0.00   3.0   WSW    2.5    2.4    2.4  1003.7  0.00  0.00   0.055   0.000   22.8    36    6.9   21.8   7.13  .0731    114    1    100.0    5 
22/01/19   9:35    2.7    2.7    2.5    88    0.9   0.0   WSW   0.00   2.0   WSW    2.7    2.6    2.6  1003.6  0.00  0.00   0.054   0.000   22.9    36    7.0   22.0   7.12  .0730    117    1    100.0    5 
22/01/19   9:40    2.9    2.9    2.7    88    1.1   0.0   NNE   0.00   2.0   ENE    2.9    2.8    2.8  1003.6  0.00  0.00   0.054   0.000   23.0    37    7.5   22.2   7.28  .0730    117    1    100.0    5 
22/01/19   9:45    3.0    3.0    2.9    88    1.2   0.0   NNE   0.00   2.0   NNE    3.0    2.9    2.9  1003.6  0.00  0.00   0.053   0.000   23.1    37    7.6   22.4   7.28  .0729    115    1    100.0    5 
22/01/19   9:50    3.1    3.1    3.0    88    1.3   0.0   WSW   0.00   6.0   WSW    3.1    3.1    3.1  1003.6  0.00  0.00   0.053   0.000   23.2    37    7.7   22.6   7.27  .0729    117    1    100.0    5 
22/01/19   9:55    3.3    3.3    3.1    88    1.5   1.0     W   0.08   5.0     W    3.3    3.2    3.2  1003.5  0.00  0.00   0.052   0.000   23.3    37    7.8   22.6   7.27  .0729    118    1    100.0    5 
22/01/19  10:00    3.4    3.4    3.3    88    1.6   2.0   WNW   0.17   8.0     W    3.2    3.4    3.2  1003.5  0.00  0.00   0.052   0.000   23.3    37    7.8   22.7   7.27  .0729    117    1    100.0    5 
22/01/19  10:05    3.6    3.6    3.4    88    1.8   0.0     W   0.00   3.0     W    3.6    3.5    3.5  1003.5  0.00  0.00   0.051   0.000   23.3    37    7.8   22.7   7.27  .0729    117    1    100.0    5 
22/01/19  10:10    3.8    3.8    3.6    88    2.0   2.0     W   0.17   8.0     W    3.6    3.7    3.5  1003.6  0.00  0.00   0.051   0.000   23.3    37    7.8   22.7   7.27  .0729    117    1    100.0    5 
22/01/19  10:15    3.8    3.8    3.8    88    2.0   3.0   WNW   0.25   7.0   WNW    2.8    3.8    2.8  1003.5  0.00  0.00   0.050   0.000   23.4    37    7.9   22.8   7.27  .0729    117    1    100.0    5 
22/01/19  10:20    4.0    4.0    3.8    88    2.2   1.0     W   0.08   5.0   WNW    4.0    3.9    3.9  1003.4  0.00  0.00   0.050   0.000   23.4    37    7.9   22.8   7.27  .0728    117    1    100.0    5 
22/01/19  10:25    4.1    4.1    4.0    88    2.3   4.0     W   0.33   9.0   WNW    2.6    4.1    2.5  1003.3  0.00  0.00   0.049   0.000   23.4    37    7.9   22.8   7.27  .0728    116    1    100.0    5 
22/01/19  10:30    4.2    4.2    4.1    87    2.2   2.0     W   0.17   7.0     W    4.0    4.1    3.9  1003.4  0.00  0.00   0.049   0.000   23.4    37    7.9   22.8   7.27  .0728    116    1    100.0    5 
22/01/19  10:35    4.3    4.3    4.2    87    2.3   3.0     W   0.25   9.0     W    3.3    4.2    3.2  1003.5  0.00  0.00   0.049   0.000   23.5    37    8.0   22.9   7.26  .0728    116    1    100.0    5 
22/01/19  10:40    4.4    4.4    4.3    87    2.4   3.0     W   0.25   9.0     W    3.5    4.3    3.4  1003.5  0.00  0.00   0.048   0.000   23.5    37    8.0   22.9   7.26  .0728    117    1    100.0    5 
22/01/19  10:45    4.4    4.4    4.4    87    2.5   4.0   WNW   0.33  11.0     W    2.9    4.3    2.8  1003.4  0.00  0.00   0.048   0.000   23.6    37    8.0   22.9   7.26  .0728    117    1    100.0    5 
22/01/19  10:50    4.6    4.6    4.4    87    2.6   3.0     W   0.25   8.0     W    3.7    4.4    3.6  1003.3  0.00  0.00   0.048   0.000   23.6    37    8.0   22.9   7.26  .0728    117    1    100.0    5 
22/01/19  10:55    4.8    4.8    4.6    87    2.8   2.0   WNW   0.17   8.0   WNW    4.7    4.7    4.6  1003.4  0.00  0.00   0.047   0.000   23.6    37    8.1   23.0   7.26  .0728    117    1    100.0    5 
22/01/19  11:00    4.8    4.8    4.8    86    2.7   4.0     W   0.33   8.0     W    3.4    4.7    3.3  1003.2  0.00  0.00   0.047   0.000   23.6    37    8.1   23.0   7.26  .0728    117    1    100.0    5 
22/01/19  11:05    4.8    4.8    4.8    86    2.7   5.0     W   0.42  10.0     W    2.9    4.7    2.8  1003.1  0.00  0.00   0.047   0.000   23.7    37    8.1   23.1   7.26  .0727    116    1    100.0    5 
22/01/19  11:10    4.9    4.9    4.8    86    2.8   3.0   WNW   0.25   7.0   WNW    4.1    4.8    4.0  1003.1  0.00  0.00   0.046   0.000   23.7    37    8.1   23.1   7.26  .0727    117    1    100.0    5 
22/01/19  11:15    5.1    5.1    4.9    86    2.9   5.0     W   0.42   9.0   WNW    3.2    4.9    3.1  1003.0  0.00  0.00   0.046   0.000   23.7    37    8.2   23.1   7.26  .0727    117    1    100.0    5 
22/01/19  11:20    5.3    5.3    5.1    86    3.1   2.0     W   0.17   8.0     W    5.3    5.2    5.2  1002.9  0.00  0.00   0.045   0.000   23.7    37    8.2   23.1   7.26  .0727    117    1    100.0    5 
22/01/19  11:25    5.4    5.4    5.3    86    3.3   4.0     W   0.33  10.0     W    4.1    5.3    4.0  1003.0  0.00  0.00   0.045   0.000   23.8    37    8.2   23.2   7.25  .0727    117    1    100.0    5 
22/01/19  11:30    5.7    5.7    5.4    85    3.3   3.0     W   0.25  10.0     W    4.9    5.6    4.8  1002.9  0.00  0.00   0.044   0.000   23.8    37    8.2   23.2   7.25  .0727    117    1    100.0    5 
22/01/19  11:35    5.8    5.8    5.6    85    3.5   3.0     W   0.25   8.0     W    5.1    5.7    4.9  1002.8  0.00  0.00   0.044   0.000   23.8    37    8.3   23.2   7.25  .0727    116    1    100.0    5 
22/01/19  11:40    5.8    5.8    5.8    84    3.3   4.0     W   0.33  11.0     W    4.6    5.7    4.4  1002.7  0.00  0.00   0.043   0.000   23.9    37    8.3   23.3   7.25  .0726    117    1    100.0    5 
22/01/19  11:45    5.8    5.9    5.8    83    3.2   6.0     W   0.50  12.0     W    3.7    5.7    3.6  1002.6  0.00  0.00   0.043   0.000   23.9    37    8.3   23.3   7.25  .0726    117    1    100.0    5 
22/01/19  11:50    5.8    5.8    5.8    82    2.9   6.0     W   0.50  10.0     W    3.7    5.7    3.6  1002.6  0.00  0.00   0.044   0.000   23.9    36    8.0   23.3   7.05  .0726    117    1    100.0    5 
22/01/19  11:55    5.8    5.8    5.8    82    3.0   6.0     W   0.50  12.0     W    3.7    5.7    3.6  1002.5  0.00  0.00   0.043   0.000   23.9    36    8.0   23.3   7.05  .0726    116    1    100.0    5 
22/01/19  12:00    6.1    6.1    5.8    82    3.2   2.0     W   0.17   9.0   WNW    6.1    5.9    5.9  1002.4  0.00  0.00   0.043   0.000   24.0    36    8.0   23.4   7.05  .0726    117    1    100.0    5 
22/01/19  12:05    6.2    6.2    6.1    81    3.1   2.0   WSW   0.17   8.0   WSW    6.2    6.0    6.0  1002.4  0.00  0.00   0.042   0.000   24.0    36    8.0   23.4   7.05  .0726    118    1    100.0    5 
22/01/19  12:10    6.3    6.3    6.2    81    3.3   2.0     W   0.17   8.0     W    6.3    6.2    6.2  1002.3  0.00  0.00   0.042   0.000   24.1    36    8.1   23.4   7.04  .0726    117    1    100.0    5 
22/01/19  12:15    6.3    6.4    6.3    80    3.1   3.0     W   0.25  10.0     W    5.7    6.2    5.5  1002.2  0.00  0.00   0.042   0.000   24.1    36    8.1   23.5   7.04  .0726    117    1    100.0    5 
22/01/19  12:20    6.4    6.4    6.3    80    3.2   3.0     W   0.25   8.0   WNW    5.8    6.3    5.7  1002.1  0.00  0.00   0.041   0.000   24.1    36    8.1   23.5   7.04  .0726    117    1    100.0    5 
22/01/19  12:25    6.6    6.6    6.5    79    3.2   2.0   WNW   0.17   7.0   WNW    6.6    6.5    6.5  1002.0  0.00  0.00   0.041   0.000   24.2    36    8.1   23.6   7.04  .0725    116    1    100.0    5 
22/01/19  12:30    6.6    6.7    6.6    78    3.0   2.0     W   0.17   7.0     W    6.6    6.4    6.4  1001.9  0.00  0.00   0.041   0.000   24.2    36    8.2   23.6   7.04  .0725    117    1    100.0    5 
22/01/19  12:35    6.6    6.7    6.6    78    3.0   3.0   WSW   0.25   6.0   WSW    6.0    6.4    5.8  1001.8  0.00  0.00   0.041   0.000   24.2    36    8.2   23.6   7.04  .0725    117    1    100.0    5 
22/01/19  12:40    6.6    6.6    6.6    78    3.0   3.0   WSW   0.25   8.0   WSW    5.9    6.4    5.8  1001.8  0.00  0.00   0.041   0.000   24.3    36    8.2   23.7   7.04  .0725    117    1    100.0    5 
22/01/19  12:45    6.2    6.6    6.2    79    2.8   6.0   WSW   0.50   8.0   WSW    4.2    6.1    4.0  1001.7  0.00  0.00   0.042   0.000   24.3    36    8.2   23.7   7.04  .0725    117    1    100.0    5 
22/01/19  12:50    5.9    6.2    5.9    79    2.6   6.0   WSW   0.50   9.0   WSW    3.8    5.8    3.7  1001.6  0.00  0.00   0.043   0.000   24.3    36    8.3   23.7   7.03  .0725    117    1    100.0    5 
22/01/19  12:55    6.1    6.1    5.9    80    2.9   6.0   WSW   0.50   8.0   WSW    4.0    5.9    3.8  1001.6  0.00  0.00   0.043   0.000   24.4    36    8.3   23.8   7.03  .0724    115    1    100.0    5 
22/01/19  13:00    6.1    6.1    6.0    79    2.7   6.0   WSW   0.50  10.0     W    4.1    5.9    3.9  1001.5  0.00  0.00   0.042   0.000   24.4    36    8.3   23.8   7.03  .0724    117    1    100.0    5 
22/01/19  13:05    6.4    6.4    6.1    79    3.0   6.0   WSW   0.50  11.0   WSW    4.4    6.2    4.2  1001.4  0.00  0.00   0.041   0.000   24.4    36    8.3   23.8   7.03  .0724    114    1    100.0    5 
22/01/19  13:10    6.4    6.5    6.4    78    2.9   4.0   WSW   0.33  11.0   WSW    5.3    6.3    5.1  1001.3  0.00  0.00   0.041   0.000   24.4    36    8.4   23.8   7.03  .0724    117    1    100.0    5 
22/01/19  13:15    6.5    6.5    6.4    78    2.9   5.0   WSW   0.42   9.0   WSW    4.9    6.3    4.7  1001.3  0.00  0.00   0.041   0.000   24.4    36    8.4   23.8   7.03  .0724    117    1    100.0    5 
22/01/19  13:20    6.5    6.6    6.5    78    2.9   2.0   WSW   0.17   8.0   WSW    6.5    6.3    6.3  1001.1  0.00  0.00   0.041   0.000   24.5    36    8.4   23.9   7.03  .0724    114    1    100.0    5 
22/01/19  13:25    6.3    6.5    6.3    77    2.5   7.0   WSW   0.58  12.0   WSW    4.0    6.1    3.8  1001.0  0.00  0.00   0.042   0.000   24.5    36    8.4   23.9   7.03  .0724    116    1    100.0    5 
22/01/19  13:30    6.2    6.3    6.2    78    2.6   5.0   WSW   0.42  10.0   WSW    4.5    6.0    4.3  1000.9  0.00  0.00   0.042   0.000   24.5    36    8.4   23.9   7.03  .0724    116    1    100.0    5 
22/01/19  13:35    6.2    6.2    6.1    78    2.6   3.0     W   0.25  10.0     W    5.5    6.0    5.3  1000.7  0.00  0.00   0.042   0.000   24.5    36    8.4   23.9   7.03  .0724    116    1    100.0    5 
22/01/19  13:40    6.2    6.2    6.2    77    2.4   1.0   WSW   0.08   5.0   WSW    6.2    5.9    5.9  1000.6  0.00  0.00   0.042   0.000   24.5    35    8.0   23.8   6.93  .0724    116    1    100.0    5 
22/01/19  13:45    6.2    6.2    6.2    77    2.4   3.0     W   0.25   9.0     W    5.5    5.9    5.3  1000.6  0.00  0.00   0.042   0.000   24.5    35    8.0   23.8   6.93  .0724    117    1    100.0    5 
22/01/19  13:50    6.2    6.2    6.2    77    2.4   1.0     W   0.08   8.0     W    6.2    5.9    5.9  1000.4  0.00  0.00   0.042   0.000   24.5    35    8.0   23.8   6.93  .0723    117    1    100.0    5 
22/01/19  13:55    6.1    6.2    6.1    77    2.3   2.0     W   0.17   7.0     W    6.1    5.8    5.8  1000.2  0.00  0.00   0.043   0.000   24.5    35    8.0   23.8   6.93  .0723    117    1    100.0    5 
22/01/19  14:00    6.0    6.1    6.0    77    2.3   0.0     W   0.00   4.0     W    6.0    5.8    5.8  1000.2  0.00  0.00   0.043   0.000   24.5    35    8.0   23.8   6.93  .0723    116    1    100.0    5 
22/01/19  14:05    6.0    6.1    6.0    77    2.3   3.0   WSW   0.25   9.0   WSW    5.3    5.8    5.1  1000.1  0.00  0.00   0.043   0.000   24.5    35    8.0   23.8   6.93  .0723    117    1    100.0    5 
22/01/19  14:10    5.9    6.0    5.8    78    2.3   5.0   WSW   0.42   9.0   WSW    4.2    5.7    4.0  1000.0  0.00  0.00   0.043   0.000   24.4    35    8.0   23.8   6.93  .0723    118    1    100.0    5 
22/01/19  14:15    5.8    5.9    5.8    79    2.4   6.0   WSW   0.50  10.0   WSW    3.7    5.6    3.5  1000.0  0.00  0.00   0.044   0.000   24.4    35    8.0   23.8   6.93  .0723    115    1    100.0    5 
22/01/19  14:20    5.6    5.8    5.6    79    2.3   3.0   WSW   0.25   9.0   WSW    4.8    5.4    4.7   999.9  0.00  0.00   0.044   0.000   24.4    35    8.0   23.8   6.93  .0723    117    1    100.0    5 
22/01/19  14:25    5.6    5.6    5.6    79    2.2   3.0     W   0.25   7.0     W    4.8    5.4    4.6   999.8  0.00  0.00   0.044   0.000   24.4    35    7.9   23.7   6.93  .0723    116    1    100.0    5 
22/01/19  14:30    5.5    5.6    5.5    79    2.1   3.0     W   0.25   7.0     W    4.7    5.3    4.6   999.8  0.00  0.00   0.045   0.000   24.4    34    7.5   23.7   6.73  .0724    114    1    100.0    5 
22/01/19  14:35    5.5    5.5    5.5    79    2.1   4.0   WSW   0.33   7.0   WSW    4.2    5.3    4.0   999.7  0.00  0.00   0.045   0.000   24.3    35    7.9   23.7   6.93  .0723    116    1    100.0    5 
22/01/19  14:40    5.5    5.5    5.5    79    2.1   3.0   WSW   0.25   7.0   WSW    4.7    5.3    4.6   999.7  0.00  0.00   0.045   0.000   24.3    34    7.5   23.6   6.73  .0724    116    1    100.0    5 
22/01/19  14:45    5.5    5.5    5.5    79    2.1   2.0     W   0.17   6.0     W    5.5    5.3    5.3   999.6  0.00  0.00   0.045   0.000   24.3    34    7.4   23.6   6.74  .0724    115    1    100.0    5 
22/01/19  14:50    5.5    5.5    5.5    79    2.1   1.0     W   0.08   5.0     W    5.5    5.3    5.3   999.5  0.00  0.00   0.045   0.000   24.3    34    7.4   23.6   6.74  .0724    116    1    100.0    5 
22/01/19  14:55    5.4    5.5    5.4    79    2.1   2.0     W   0.17   5.0     W    5.4    5.3    5.3   999.5  0.00  0.00   0.045   0.000   24.2    34    7.4   23.5   6.74  .0724    116    1    100.0    5 
22/01/19  15:00    5.4    5.5    5.4    79    2.1   3.0     W   0.25   7.0     W    4.7    5.3    4.5   999.4  0.00  0.00   0.045   0.000   24.2    34    7.4   23.5   6.74  .0724    117    1    100.0    5 
22/01/19  15:05    5.4    5.4    5.4    79    2.0   4.0   WSW   0.33   9.0   WSW    4.1    5.2    3.9   999.3  0.00  0.00   0.045   0.000   24.2    34    7.3   23.4   6.74  .0724    116    1    100.0    5 
22/01/19  15:10    5.1    5.4    5.1    77    1.4   7.0   WSW   0.58  15.0   WSW    2.4    4.8    2.2   999.3  0.00  0.00   0.046   0.000   24.2    34    7.3   23.4   6.74  .0724    116    1    100.0    5 
22/01/19  15:15    4.7    5.0    4.7    75    0.6   9.0   WSW   0.75  15.0   WSW    1.4    4.4    1.2   999.2  0.00  0.00   0.047   0.000   24.1    34    7.3   23.4   6.74  .0724    116    1    100.0    5 
22/01/19  15:20    4.6    4.7    4.6    76    0.7   3.0    SW   0.25   6.0    SW    3.7    4.3    3.4   999.3  0.00  0.00   0.048   0.000   24.1    34    7.2   23.3   6.74  .0724    116    1    100.0    5 
22/01/19  15:25    4.4    4.6    4.4    77    0.8   3.0    SW   0.25   6.0    SW    3.6    4.2    3.3   999.1  0.00  0.00   0.048   0.000   24.1    34    7.2   23.3   6.74  .0724    117    1    100.0    5 
22/01/19  15:30    4.4    4.4    4.4    77    0.8   2.0    SW   0.17   5.0    SW    4.3    4.2    4.1   999.1  0.00  0.00   0.048   0.000   24.1    34    7.2   23.3   6.74  .0724    116    1    100.0    5 
22/01/19  15:35    4.4    4.5    4.4    78    0.9   1.0   WSW   0.08   5.0   WSW    4.4    4.2    4.2   999.0  0.00  0.00   0.048   0.000   23.9    34    7.1   23.2   6.75  .0724    116    1    100.0    5 
22/01/19  15:40    4.4    4.4    4.4    78    0.9   1.0   WSW   0.08   5.0   WSW    4.4    4.2    4.2   999.0  0.00  0.00   0.048   0.000   23.9    34    7.1   23.2   6.75  .0724    115    1    100.0    5 
22/01/19  15:45    4.3    4.4    4.3    78    0.8   1.0   WSW   0.08   5.0   WSW    4.3    4.1    4.1   998.9  0.00  0.00   0.049   0.000   23.9    34    7.1   23.2   6.75  .0724    116    1    100.0    5 
22/01/19  15:50    4.3    4.3    4.3    79    1.0   0.0   WSW   0.00   3.0   WSW    4.3    4.1    4.1   999.0  0.00  0.00   0.049   0.000   23.9    34    7.1   23.2   6.75  .0724    117    1    100.0    5 
22/01/19  15:55    4.2    4.3    4.2    79    0.9   1.0   WSW   0.08   4.0   WSW    4.2    4.1    4.1   998.9  0.00  0.00   0.049   0.000   23.8    34    7.0   23.1   6.75  .0725    115    1    100.0    5 
22/01/19  16:00    4.2    4.3    4.2    79    0.9   0.0   WSW   0.00   4.0   WSW    4.2    4.1    4.1   998.9  0.00  0.00   0.049   0.000   23.8    33    6.6   23.1   6.55  .0725    117    1    100.0    5 
22/01/19  16:05    4.2    4.2    4.2    79    0.8   0.0   ---   0.00   0.0   ---    4.2    4.0    4.0   998.8  0.00  0.00   0.049   0.000   23.8    33    6.5   23.0   6.55  .0725    115    1    100.0    5 
22/01/19  16:10    4.2    4.2    4.2    79    0.8   0.0   ---   0.00   0.0   ---    4.2    4.0    4.0   998.8  0.00  0.00   0.049   0.000   23.7    33    6.5   22.9   6.56  .0725    117    1    100.0    5 
22/01/19  16:15    4.2    4.2    4.2    80    1.0   0.0   ---   0.00   0.0   ---    4.2    4.0    4.0   998.7  0.00  0.00   0.049   0.000   23.7    33    6.5   22.9   6.56  .0725    116    1    100.0    5 
22/01/19  16:20    4.1    4.2    4.1    80    1.0   1.0   WSW   0.08   4.0   WSW    4.1    3.9    3.9   998.7  0.01  0.00   0.049   0.000   23.7    33    6.4   22.9   6.56  .0725    118    1    100.0    5 
22/01/19  16:25    4.0    4.1    4.0    80    0.9   1.0   WSW   0.08   3.0   WSW    4.0    3.8    3.8   998.6  0.00  0.00   0.050   0.000   23.7    33    6.4   22.9   6.56  .0725    116    1    100.0    5 
22/01/19  16:30    3.9    4.0    3.9    80    0.8   0.0   ---   0.00   0.0   ---    3.9    3.8    3.8   998.5  0.00  0.00   0.050   0.000   23.6    33    6.4   22.8   6.56  .0725    117    1    100.0    5 
22/01/19  16:35    3.8    3.9    3.8    80    0.7   0.0   WSW   0.00   1.0   WSW    3.8    3.7    3.7   998.5  0.00  0.00   0.050   0.000   23.6    33    6.3   22.8   6.56  .0725    117    1    100.0    5 
22/01/19  16:40    3.7    3.8    3.7    81    0.8   0.0   ---   0.00   0.0   ---    3.7    3.6    3.6   998.4  0.01  0.00   0.051   0.000   23.6    33    6.3   22.8   6.56  .0725    117    1    100.0    5 
22/01/19  16:45    3.7    3.7    3.7    82    0.9   0.0   ---   0.00   0.0   ---    3.7    3.6    3.6   998.4  0.00  0.00   0.051   0.000   23.5    33    6.3   22.7   6.56  .0725    116    1    100.0    5 
22/01/19  16:50    3.7    3.7    3.7    82    0.9   0.0   ---   0.00   0.0   ---    3.7    3.5    3.5   998.3  0.01  0.05   0.051   0.000   23.4    33    6.2   22.7   6.57  .0725    116    1    100.0    5 
22/01/19  16:55    3.6    3.7    3.6    82    0.8   0.0   ---   0.00   0.0   ---    3.6    3.4    3.4   998.3  0.00  0.05   0.051   0.000   23.4    33    6.2   22.7   6.57  .0725    114    1    100.0    5 
22/01/19  17:00    3.6    3.6    3.6    83    0.9   0.0   ---   0.00   0.0   ---    3.6    3.4    3.4   998.4  0.00  0.05   0.051   0.000   23.4    34    6.7   22.7   6.77  .0725    114    1    100.0    5 
22/01/19  17:05    3.6    3.6    3.6    83    0.9   0.0   ---   0.00   0.0   ---    3.6    3.4    3.4   998.3  0.00  0.04   0.051   0.000   23.4    34    6.7   22.7   6.77  .0725    116    1    100.0    5 
22/01/19  17:10    3.5    3.6    3.5    83    0.9   0.0   ---   0.00   0.0   ---    3.5    3.4    3.4   998.2  0.01  0.04   0.052   0.000   23.4    34    6.6   22.6   6.77  .0725    116    1    100.0    5 
22/01/19  17:15    3.4    3.5    3.4    83    0.8   0.0   ---   0.00   0.0   ---    3.4    3.3    3.3   998.3  0.00  0.00   0.052   0.000   23.4    34    6.6   22.6   6.77  .0725    117    1    100.0    5 
22/01/19  17:20    3.3    3.4    3.3    84    0.9   0.0   ---   0.00   0.0   ---    3.3    3.2    3.2   998.2  0.00  0.00   0.052   0.000   23.4    34    6.6   22.6   6.77  .0725    116    1    100.0    5 
22/01/19  17:25    3.3    3.3    3.3    84    0.8   0.0   ---   0.00   0.0   ---    3.3    3.2    3.2   998.1  0.01  0.04   0.052   0.000   23.4    34    6.6   22.6   6.77  .0725    117    1    100.0    5 
22/01/19  17:30    3.2    3.2    3.2    84    0.7   0.0   ---   0.00   0.0   ---    3.2    3.1    3.1   998.1  0.00  0.04   0.053   0.000   23.4    34    6.6   22.6   6.77  .0725    116    1    100.0    5 
22/01/19  17:35    3.2    3.2    3.2    85    0.9   1.0   WSW   0.08   4.0   WSW    3.2    3.1    3.1   998.1  0.00  0.04   0.053   0.000   23.4    34    6.7   22.7   6.77  .0725    114    1    100.0    5 
22/01/19  17:40    3.2    3.2    3.2    85    0.9   3.0   WSW   0.25   5.0   WSW    2.1    3.1    2.0   998.0  0.00  0.00   0.053   0.000   23.4    34    6.7   22.7   6.77  .0725    115    1    100.0    5 
22/01/19  17:45    3.1    3.2    3.1    85    0.8   3.0   WSW   0.25   5.0   WSW    2.1    3.0    1.9   997.8  0.00  0.00   0.053   0.000   23.4    34    6.7   22.7   6.77  .0725    117    1    100.0    5 
22/01/19  17:50    3.1    3.2    3.1    85    0.8   3.0   WSW   0.25   5.0    SW    2.1    3.0    1.9   997.7  0.00  0.00   0.053   0.000   23.4    34    6.7   22.7   6.77  .0725    114    1    100.0    5 
22/01/19  17:55    3.1    3.2    3.1    86    1.0   0.0    SW   0.00   3.0    SW    3.1    3.0    3.0   997.7  0.00  0.00   0.053   0.000   23.5    34    6.7   22.7   6.76  .0725    116    1    100.0    5 
22/01/19  18:00    3.1    3.1    3.1    86    1.0   0.0    SW   0.00   2.0    SW    3.1    3.0    3.0   997.7  0.00  0.00   0.053   0.000   23.5    34    6.7   22.7   6.76  .0725    116    1    100.0    5 
22/01/19  18:05    3.1    3.1    3.1    86    0.9   0.0   ---   0.00   0.0   ---    3.1    2.9    2.9   997.9  0.00  0.00   0.053   0.000   23.6    34    6.8   22.8   6.76  .0725    116    1    100.0    5 
22/01/19  18:10    3.1    3.1    3.1    86    0.9   0.0   ---   0.00   0.0   ---    3.1    2.9    2.9   997.7  0.00  0.00   0.053   0.000   23.6    35    7.2   22.8   6.96  .0724    116    1    100.0    5 
22/01/19  18:15    3.1    3.1    3.1    86    1.0   0.0   ---   0.00   0.0   ---    3.1    3.0    3.0   997.7  0.00  0.00   0.053   0.000   23.6    35    7.2   22.8   6.96  .0724    117    1    100.0    5 
22/01/19  18:20    3.1    3.1    3.1    86    0.9   0.0   ---   0.00   0.0   ---    3.1    2.9    2.9   997.6  0.00  0.00   0.053   0.000   23.6    35    7.2   22.8   6.96  .0724    115    1    100.0    5 
22/01/19  18:25    3.1    3.1    3.1    86    1.0   0.0   ---   0.00   0.0   ---    3.1    3.0    3.0   997.7  0.00  0.00   0.053   0.000   23.6    35    7.2   22.9   6.96  .0724    117    1    100.0    5 
22/01/19  18:30    3.2    3.2    3.1    86    1.0   0.0   ---   0.00   0.0   ---    3.2    3.1    3.1   997.6  0.00  0.00   0.053   0.000   23.6    35    7.2   22.9   6.96  .0724    116    1    100.0    5 
22/01/19  18:35    3.2    3.2    3.2    86    1.1   0.0   ---   0.00   0.0   ---    3.2    3.1    3.1   997.6  0.00  0.00   0.052   0.000   23.6    35    7.2   22.9   6.96  .0724    116    1    100.0    5 
22/01/19  18:40    3.2    3.2    3.2    86    1.1   0.0   ---   0.00   0.0   ---    3.2    3.1    3.1   997.5  0.00  0.00   0.052   0.000   23.6    36    7.7   22.9   7.07  .0724    115    1    100.0    5 
22/01/19  18:45    3.2    3.2    3.2    86    1.1   0.0   ---   0.00   0.0   ---    3.2    3.1    3.1   997.4  0.00  0.00   0.052   0.000   23.7    36    7.7   23.0   7.07  .0723    117    1    100.0    5 
22/01/19  18:50    3.2    3.2    3.2    87    1.3   0.0   ---   0.00   0.0   ---    3.2    3.1    3.1   997.3  0.00  0.00   0.052   0.000   23.7    36    7.7   23.0   7.07  .0723    117    1    100.0    5 
22/01/19  18:55    3.2    3.2    3.2    87    1.2   0.0   ---   0.00   0.0   ---    3.2    3.1    3.1   997.2  0.00  0.00   0.053   0.000   23.7    36    7.7   23.0   7.07  .0723    116    1    100.0    5 
22/01/19  19:00    3.1    3.2    3.1    87    1.2   0.0   ---   0.00   0.0   ---    3.1    3.0    3.0   997.1  0.00  0.00   0.053   0.000   23.7    36    7.8   23.1   7.06  .0723    116    1    100.0    5 
22/01/19  19:05    3.1    3.1    3.1    87    1.1   0.0   ---   0.00   0.0   ---    3.1    2.9    2.9   997.2  0.00  0.00   0.053   0.000   23.7    36    7.8   23.1   7.06  .0723    117    1    100.0    5 
22/01/19  19:10    3.1    3.1    3.1    87    1.1   0.0   ---   0.00   0.0   ---    3.1    2.9    2.9   997.2  0.00  0.00   0.053   0.000   23.7    36    7.8   23.1   7.06  .0723    115    1    100.0    5 
22/01/19  19:15    3.1    3.1    3.0    87    1.1   0.0   ---   0.00   0.0   ---    3.1    2.9    2.9   997.2  0.00  0.00   0.053   0.000   23.7    36    7.8   23.1   7.06  .0723    117    1    100.0    5 
22/01/19  19:20    3.0    3.1    3.0    87    1.0   0.0   ---   0.00   0.0   ---    3.0    2.9    2.9   997.1  0.00  0.00   0.053   0.000   23.8    36    7.8   23.2   7.06  .0723    116    1    100.0    5 
22/01/19  19:25    3.0    3.0    3.0    87    1.0   0.0   ---   0.00   0.0   ---    3.0    2.9    2.9   997.1  0.00  0.00   0.053   0.000   23.8    36    7.8   23.2   7.06  .0723    116    1    100.0    5 
22/01/19  19:30    2.9    3.0    2.9    87    1.0   0.0   ---   0.00   0.0   ---    2.9    2.8    2.8   997.1  0.00  0.00   0.053   0.000   23.8    36    7.8   23.2   7.06  .0723    117    1    100.0    5 
22/01/19  19:35    2.9    3.0    2.9    87    1.0   0.0   ---   0.00   0.0   ---    2.9    2.8    2.8   997.0  0.00  0.00   0.053   0.000   23.8    36    7.8   23.2   7.06  .0723    118    1    100.0    5 
22/01/19  19:40    2.9    2.9    2.9    87    1.0   0.0   ---   0.00   0.0   ---    2.9    2.8    2.8   997.0  0.00  0.00   0.053   0.000   23.8    36    7.9   23.2   7.05  .0723    117    1    100.0    5 
22/01/19  19:45    2.9    2.9    2.9    87    0.9   0.0   ---   0.00   0.0   ---    2.9    2.8    2.8   997.0  0.00  0.00   0.054   0.000   23.8    36    7.9   23.2   7.05  .0723    117    1    100.0    5 
22/01/19  19:50    2.9    2.9    2.9    87    0.9   0.0   ---   0.00   0.0   ---    2.9    2.8    2.8   997.0  0.00  0.00   0.054   0.000   23.8    36    7.9   23.2   7.05  .0723    116    1    100.0    5 
22/01/19  19:55    2.8    2.9    2.8    87    0.9   0.0   ---   0.00   0.0   ---    2.8    2.7    2.7   996.9  0.00  0.00   0.054   0.000   23.8    36    7.9   23.2   7.05  .0723    116    1    100.0    5 
22/01/19  20:00    2.8    2.8    2.8    87    0.8   0.0   ---   0.00   0.0   ---    2.8    2.7    2.7   996.9  0.00  0.00   0.054   0.000   23.8    36    7.9   23.2   7.05  .0723    116    1    100.0    5 
22/01/19  20:05    2.7    2.8    2.7    87    0.8   0.0   ---   0.00   0.0   ---    2.7    2.6    2.6   996.8  0.00  0.00   0.054   0.000   23.8    36    7.9   23.2   7.05  .0723    115    1    100.0    5 
22/01/19  20:10    2.7    2.7    2.7    87    0.7   0.0   ---   0.00   0.0   ---    2.7    2.6    2.6   996.9  0.00  0.00   0.054   0.000   23.8    36    7.9   23.2   7.05  .0723    116    1    100.0    5 
22/01/19  20:15    2.6    2.7    2.6    87    0.7   0.0   ---   0.00   0.0   ---    2.6    2.5    2.5   996.9  0.00  0.00   0.055   0.000   23.8    36    7.9   23.2   7.05  .0723    117    1    100.0    5 
22/01/19  20:20    2.5    2.6    2.5    87    0.6   0.0   ---   0.00   0.0   ---    2.5    2.4    2.4   996.8  0.00  0.00   0.055   0.000   23.8    36    7.9   23.2   7.05  .0723    117    1    100.0    5 
22/01/19  20:25    2.4    2.5    2.4    87    0.5   0.0   ---   0.00   0.0   ---    2.4    2.3    2.3   996.8  0.00  0.00   0.055   0.000   23.8    36    7.9   23.2   7.05  .0723    116    1    100.0    5 
22/01/19  20:30    2.3    2.4    2.3    87    0.4   0.0   ---   0.00   0.0   ---    2.3    2.2    2.2   996.8  0.00  0.00   0.056   0.000   23.9    36    7.9   23.3   7.05  .0722    117    1    100.0    5 
22/01/19  20:35    2.3    2.4    2.3    87    0.3   0.0   ---   0.00   0.0   ---    2.3    2.2    2.2   996.7  0.00  0.00   0.056   0.000   23.9    36    7.9   23.3   7.05  .0722    117    1    100.0    5 
22/01/19  20:40    2.2    2.3    2.2    87    0.3   0.0   ---   0.00   0.0   ---    2.2    2.1    2.1   996.7  0.00  0.00   0.056   0.000   23.9    36    7.9   23.3   7.05  .0722    117    1    100.0    5 
22/01/19  20:45    2.2    2.2    2.2    88    0.4   0.0   ---   0.00   0.0   ---    2.2    2.1    2.1   996.8  0.00  0.00   0.056   0.000   23.9    36    7.9   23.3   7.05  .0722    116    1    100.0    5 
22/01/19  20:50    2.1    2.2    2.1    87    0.1   0.0   ---   0.00   0.0   ---    2.1    1.9    1.9   996.8  0.00  0.00   0.057   0.000   23.9    36    8.0   23.3   7.05  .0722    117    1    100.0    5 
22/01/19  20:55    2.1    2.1    2.1    87    0.1   0.0   ---   0.00   0.0   ---    2.1    1.9    1.9   996.8  0.00  0.00   0.057   0.000   23.9    36    8.0   23.3   7.05  .0722    115    1    100.0    5 
22/01/19  21:00    2.0    2.1    2.0    88    0.2   0.0    SW   0.00   2.0    SW    2.0    1.9    1.9   996.8  0.00  0.00   0.057   0.000   23.9    36    8.0   23.3   7.05  .0722    117    1    100.0    5 
22/01/19  21:05    2.1    2.1    2.0    88    0.3   0.0    SW   0.00   3.0    SW    2.1    2.0    2.0   996.8  0.00  0.00   0.057   0.000   23.9    36    8.0   23.3   7.05  .0722    116    1    100.0    5 
22/01/19  21:10    2.1    2.1    2.0    88    0.3   1.0    SW   0.08   4.0    SW    2.1    2.0    2.0   996.7  0.00  0.00   0.057   0.000   23.9    35    7.5   23.3   6.95  .0722    117    1    100.0    5 
22/01/19  21:15    2.0    2.1    2.0    88    0.2   0.0    SW   0.00   1.0    SW    2.0    1.9    1.9   996.6  0.00  0.00   0.057   0.000   23.9    35    7.5   23.3   6.95  .0722    115    1    100.0    5 
22/01/19  21:20    1.9    2.0    1.9    88    0.2   0.0   ---   0.00   0.0   ---    1.9    1.9    1.9   996.5  0.00  0.00   0.057   0.000   23.9    35    7.5   23.2   6.95  .0722    117    1    100.0    5 
22/01/19  21:25    1.8    1.9    1.8    88    0.1   0.0   ---   0.00   0.0   ---    1.8    1.8    1.8   996.5  0.00  0.00   0.057   0.000   23.9    35    7.5   23.2   6.95  .0722    116    1    100.0    5 
22/01/19  21:30    1.8    1.8    1.8    88    0.0   0.0   ---   0.00   0.0   ---    1.8    1.7    1.7   996.4  0.00  0.00   0.057   0.000   23.9    35    7.5   23.2   6.95  .0722    117    1    100.0    5 
22/01/19  21:35    1.7    1.8    1.7    88   -0.1   0.0   ---   0.00   0.0   ---    1.7    1.6    1.6   996.5  0.00  0.00   0.058   0.000   23.8    35    7.4   23.2   6.95  .0723    117    1    100.0    5 
22/01/19  21:40    1.6    1.7    1.6    88   -0.2   0.0   ---   0.00   0.0   ---    1.6    1.6    1.6   996.5  0.00  0.00   0.058   0.000   23.9    35    7.5   23.2   6.95  .0722    115    1    100.0    5 
22/01/19  21:45    1.5    1.6    1.5    88   -0.3   0.0    SW   0.00   3.0    SW    1.5    1.4    1.4   996.5  0.00  0.00   0.058   0.000   23.9    35    7.5   23.2   6.95  .0722    117    1    100.0    5 
22/01/19  21:50    1.5    1.6    1.5    88   -0.3   0.0    SW   0.00   3.0    SW    1.5    1.4    1.4   996.6  0.00  0.00   0.058   0.000   23.9    35    7.5   23.2   6.95  .0722    117    1    100.0    5 
22/01/19  21:55    1.4    1.5    1.4    88   -0.3   0.0    SW   0.00   3.0    SW    1.4    1.3    1.3   996.7  0.00  0.00   0.059   0.000   23.9    35    7.5   23.2   6.95  .0722    114    1    100.0    5 
22/01/19  22:00    1.4    1.4    1.4    88   -0.3   0.0    SW   0.00   4.0    SW    1.4    1.3    1.3   996.7  0.00  0.00   0.059   0.000   23.9    35    7.5   23.3   6.95  .0722    116    1    100.0    5 
22/01/19  22:05    1.4    1.4    1.4    88   -0.4   0.0    SW   0.00   2.0    SW    1.4    1.3    1.3   996.6  0.00  0.00   0.059   0.000   23.9    35    7.5   23.3   6.95  .0722    116    1    100.0    5 
22/01/19  22:10    1.3    1.4    1.3    88   -0.4   0.0   ---   0.00   0.0   ---    1.3    1.2    1.2   996.6  0.00  0.00   0.059   0.000   23.9    35    7.5   23.3   6.95  .0722    117    1    100.0    5 
22/01/19  22:15    1.3    1.3    1.3    88   -0.5   0.0    SW   0.00   1.0    SW    1.3    1.2    1.2   996.6  0.00  0.00   0.059   0.000   23.9    35    7.5   23.3   6.95  .0722    117    1    100.0    5 
22/01/19  22:20    1.3    1.3    1.3    88   -0.5   0.0   ---   0.00   0.0   ---    1.3    1.2    1.2   996.5  0.00  0.00   0.059   0.000   23.9    35    7.5   23.3   6.95  .0722    116    1    100.0    5 
22/01/19  22:25    1.2    1.3    1.2    88   -0.6   0.0   ---   0.00   0.0   ---    1.2    1.1    1.1   996.5  0.00  0.00   0.060   0.000   23.9    35    7.5   23.3   6.95  .0722    116    1    100.0    5 
22/01/19  22:30    1.2    1.2    1.2    88   -0.6   0.0   ---   0.00   0.0   ---    1.2    1.1    1.1   996.5  0.00  0.00   0.060   0.000   23.9    35    7.5   23.3   6.95  .0722    117    1    100.0    5 
22/01/19  22:35    1.1    1.2    1.1    88   -0.7   0.0   ---   0.00   0.0   ---    1.1    1.0    1.0   996.5  0.00  0.00   0.060   0.000   23.9    35    7.5   23.3   6.95  .0722    117    1    100.0    5 
22/01/19  22:40    1.1    1.1    1.1    88   -0.7   0.0    SW   0.00   3.0    SW    1.1    0.9    0.9   996.4  0.00  0.00   0.060   0.000   23.9    35    7.5   23.3   6.95  .0722    117    1    100.0    5 
22/01/19  22:45    1.1    1.1    1.0    88   -0.7   0.0   ---   0.00   0.0   ---    1.1    0.9    0.9   996.4  0.00  0.00   0.060   0.000   23.9    35    7.5   23.3   6.95  .0722    115    1    100.0    5 
22/01/19  22:50    1.0    1.1    1.0    88   -0.8   0.0    SW   0.00   3.0    SW    1.0    0.9    0.9   996.3  0.00  0.00   0.060   0.000   23.9    35    7.5   23.3   6.95  .0722    118    1    100.0    5 
22/01/19  22:55    0.9    1.0    0.9    88   -0.8   0.0   ---   0.00   0.0   ---    0.9    0.8    0.8   996.3  0.00  0.00   0.060   0.000   23.9    35    7.5   23.2   6.95  .0722    116    1    100.0    5 
22/01/19  23:00    0.9    1.0    0.9    88   -0.8   0.0    SW   0.00   2.0    SW    0.9    0.8    0.8   996.4  0.00  0.00   0.060   0.000   23.9    35    7.5   23.2   6.95  .0722    117    1    100.0    5 
22/01/19  23:05    0.9    0.9    0.9    88   -0.8   0.0    SW   0.00   2.0    SW    0.9    0.8    0.8   996.4  0.00  0.00   0.060   0.000   23.8    35    7.4   23.2   6.95  .0722    117    1    100.0    5 
22/01/19  23:10    0.9    0.9    0.9    88   -0.8   0.0   ---   0.00   0.0   ---    0.9    0.8    0.8   996.3  0.00  0.00   0.060   0.000   23.9    35    7.5   23.2   6.95  .0722    116    1    100.0    5 
22/01/19  23:15    0.9    0.9    0.9    88   -0.9   0.0   ---   0.00   0.0   ---    0.9    0.8    0.8   996.3  0.00  0.00   0.061   0.000   23.9    35    7.5   23.2   6.95  .0722    117    1    100.0    5 
22/01/19  23:20    0.8    0.9    0.8    88   -0.9   0.0   ---   0.00   0.0   ---    0.8    0.7    0.7   996.3  0.00  0.00   0.061   0.000   23.9    35    7.5   23.2   6.95  .0722    116    1    100.0    5 
22/01/19  23:25    0.8    0.8    0.8    88   -1.0   0.0   ---   0.00   0.0   ---    0.8    0.7    0.7   996.2  0.00  0.00   0.061   0.000   23.9    35    7.5   23.2   6.95  .0722    116    1    100.0    5 
22/01/19  23:30    0.7    0.8    0.7    88   -1.0   0.0   ---   0.00   0.0   ---    0.7    0.6    0.6   996.1  0.00  0.00   0.061   0.000   23.9    35    7.5   23.2   6.95  .0722    116    1    100.0    5 
22/01/19  23:35    0.7    0.7    0.7    88   -1.1   0.0   ---   0.00   0.0   ---    0.7    0.6    0.6   996.1  0.00  0.00   0.061   0.000   23.9    35    7.5   23.2   6.95  .0722    116    1    100.0    5 
22/01/19  23:40    0.6    0.6    0.6    88   -1.2   0.0   ---   0.00   0.0   ---    0.6    0.4    0.4   996.1  0.00  0.00   0.062   0.000   23.9    35    7.5   23.3   6.95  .0722    116    1    100.0    5 
22/01/19  23:45    0.6    0.6    0.6    88   -1.2   0.0   ---   0.00   0.0   ---    0.6    0.4    0.4   996.1  0.00  0.00   0.062   0.000   23.9    35    7.5   23.3   6.95  .0722    115    1    100.0    5 
22/01/19  23:50    0.6    0.6    0.5    88   -1.2   0.0   ---   0.00   0.0   ---    0.6    0.4    0.4   996.1  0.00  0.00   0.062   0.000   23.9    35    7.5   23.3   6.95  .0722    116    1    100.0    5 
22/01/19  23:55    0.6    0.6    0.6    88   -1.2   0.0    SW   0.00   2.0    SW    0.6    0.4    0.4   996.1  0.00  0.00   0.062   0.000   23.9    35    7.5   23.3   6.95  .0722    118    1    100.0    5 
23/01/19  00:00    0.6    0.6    0.6    88   -1.2   0.0    SW   0.00   2.0    SW    0.6    0.4    0.4   996.1  0.00  0.00   0.062   0.000   23.9    35    7.5   23.3   6.95  .0722    115    1    100.0    5 
23/01/19   0:05    0.6    0.6    0.6    88   -1.1   1.0    SW   0.08   4.0    SW    0.6    0.5    0.5   996.0  0.00  0.00   0.062   0.000   23.9    35    7.5   23.3   6.95  .0722    115    1    100.0    5 
23/01/19   0:10    0.6    0.6    0.6    88   -1.1   0.0   ---   0.00   0.0   ---    0.6    0.5    0.5   996.0  0.00  0.00   0.062   0.000   24.0    34    7.2   23.3   6.75  .0722    116    1    100.0    5 
23/01/19   0:15    0.6    0.6    0.6    88   -1.1   0.0    SW   0.00   3.0    SW    0.6    0.5    0.5   995.9  0.00  0.00   0.062   0.000   24.0    34    7.2   23.3   6.75  .0722    114    1    100.0    5 
23/01/19   0:20    0.6    0.6    0.6    88   -1.1   2.0    SW   0.17   5.0   WSW    0.1    0.5    0.0   995.9  0.00  0.00   0.062   0.000   24.0    34    7.2   23.3   6.75  .0722    117    1    100.0    5 
23/01/19   0:25    0.6    0.7    0.6    88   -1.1   2.0   WSW   0.17   7.0   WNW    0.1    0.5    0.0   995.9  0.00  0.00   0.062   0.000   24.0    34    7.2   23.3   6.75  .0722    116    1    100.0    5 
23/01/19   0:30    0.7    0.7    0.6    88   -1.1   2.0   WNW   0.17   7.0   WNW    0.2    0.6    0.1   995.9  0.01  0.00   0.061   0.000   23.9    34    7.1   23.2   6.75  .0722    115    1    100.0    5 
23/01/19   0:35    0.6    0.7    0.6    88   -1.1   2.0    NW   0.17   6.0    NW    0.1    0.5    0.0   995.9  0.00  0.00   0.062   0.000   23.9    34    7.1   23.2   6.75  .0722    113    1     99.1    5 
23/01/19   0:40    0.6    0.6    0.6    88   -1.2   2.0    NW   0.17   6.0    NW    0.1    0.4   -0.1   995.9  0.00  0.00   0.062   0.000   23.9    34    7.1   23.2   6.75  .0722    117    1    100.0    5 
23/01/19   0:45    0.6    0.6    0.6    88   -1.2   1.0    NW   0.08   5.0    NW    0.6    0.4    0.4   995.9  0.00  0.00   0.062   0.000   23.9    34    7.1   23.2   6.75  .0722    117    1    100.0    5 
23/01/19   0:50    0.5    0.6    0.5    88   -1.3   2.0    NW   0.17   6.0    NW    0.0    0.4   -0.1   995.9  0.00  0.00   0.062   0.000   24.0    34    7.2   23.3   6.75  .0722    117    1    100.0    5 
23/01/19   0:55    0.4    0.5    0.4    88   -1.3   2.0    NW   0.17   6.0    NW   -0.1    0.3   -0.2   995.9  0.00  0.00   0.062   0.000   24.0    34    7.2   23.3   6.75  .0722    116    1    100.0    5 
23/01/19   1:00    0.4    0.4    0.4    88   -1.4   1.0    NW   0.08   5.0    NW    0.4    0.3    0.3   995.9  0.00  0.00   0.062   0.000   24.1    34    7.2   23.3   6.74  .0722    115    1    100.0    5 
23/01/19   1:05    0.3    0.4    0.3    88   -1.4   1.0    NW   0.08   5.0    NW    0.3    0.2    0.2   996.0  0.00  0.00   0.063   0.000   24.1    34    7.3   23.4   6.74  .0722    117    1    100.0    5 
23/01/19   1:10    0.3    0.4    0.3    88   -1.4   1.0    NW   0.08   4.0    NW    0.3    0.2    0.2   996.0  0.00  0.00   0.063   0.000   24.1    34    7.3   23.4   6.74  .0722    116    1    100.0    5 
23/01/19   1:15    0.3    0.3    0.3    88   -1.4   2.0    NW   0.17   5.0    NW   -0.2    0.2   -0.3   996.0  0.00  0.00   0.063   0.000   24.2    33    6.9   23.4   6.55  .0722    116    1    100.0    5 
23/01/19   1:20    0.3    0.3    0.3    88   -1.4   3.0    NW   0.25   7.0    NW   -1.1    0.2   -1.2   996.1  0.00  0.00   0.063   0.000   24.1    34    7.3   23.4   6.74  .0722    117    1    100.0    5 
23/01/19   1:25    0.3    0.3    0.3    88   -1.4   3.0   NNW   0.25   7.0   NNW   -1.1    0.2   -1.2   996.1  0.00  0.00   0.063   0.000   24.1    33    6.8   23.3   6.55  .0722    118    1    100.0    5 
23/01/19   1:30    0.3    0.3    0.3    88   -1.4   3.0   NNW   0.25   6.0   NNW   -1.1    0.2   -1.2   996.2  0.00  0.00   0.063   0.000   24.1    33    6.8   23.3   6.55  .0722    116    1    100.0    5 
23/01/19   1:35    0.3    0.3    0.3    88   -1.4   2.0   NNW   0.17   5.0   NNW   -0.2    0.2   -0.3   996.3  0.00  0.00   0.063   0.000   24.1    33    6.8   23.3   6.55  .0722    117    1    100.0    5 
23/01/19   1:40    0.3    0.3    0.3    88   -1.5   2.0   NNW   0.17   5.0   NNW   -0.3    0.2   -0.4   996.4  0.00  0.00   0.063   0.000   24.1    33    6.8   23.3   6.55  .0722    116    1    100.0    5 
23/01/19   1:45    0.3    0.3    0.3    88   -1.5   2.0   NNW   0.17   6.0   NNW   -0.3    0.2   -0.4   996.4  0.00  0.00   0.063   0.000   24.1    33    6.8   23.3   6.55  .0722    117    1    100.0    5 
23/01/19   1:50    0.2    0.3    0.2    88   -1.5   2.0   NNW   0.17   6.0   NNW   -0.3    0.1   -0.4   996.5  0.00  0.00   0.063   0.000   24.1    33    6.8   23.3   6.55  .0722    116    1    100.0    5 
23/01/19   1:55    0.2    0.2    0.2    88   -1.6   1.0   NNW   0.08   4.0   NNW    0.2    0.1    0.1   996.3  0.00  0.00   0.063   0.000   24.1    33    6.8   23.3   6.55  .0722    116    1    100.0    5 
23/01/19   2:00    0.2    0.2    0.2    88   -1.6   0.0   NNW   0.00   1.0   NNW    0.2    0.1    0.1   996.4  0.00  0.00   0.063   0.000   24.1    33    6.8   23.3   6.55  .0722    116    1    100.0    5 
23/01/19   2:05    0.1    0.2    0.1    88   -1.6   0.0   ---   0.00   0.0   ---    0.1    0.0    0.0   996.2  0.00  0.00   0.063   0.000   24.1    33    6.8   23.3   6.55  .0722    117    1    100.0    5 
23/01/19   2:10    0.1    0.1    0.1    88   -1.7   0.0   NNW   0.00   1.0   NNW    0.1    0.0    0.0   996.2  0.00  0.00   0.063   0.000   24.1    33    6.8   23.3   6.55  .0722    115    1    100.0    5 
23/01/19   2:15    0.0    0.1    0.0    88   -1.8   2.0   NNW   0.17   6.0   NNW   -0.6   -0.1   -0.6   996.2  0.00  0.00   0.064   0.000   24.2    33    6.9   23.4   6.55  .0722    117    1    100.0    5 
23/01/19   2:20    0.1    0.1    0.0    88   -1.7   4.0   NNW   0.33  10.0     N   -2.1    0.0   -2.2   996.2  0.00  0.00   0.063   0.000   24.2    33    6.9   23.4   6.55  .0722    117    1    100.0    5 
23/01/19   2:25    0.1    0.1    0.0    88   -1.7   3.0     N   0.25  10.0   NNW   -1.4    0.0   -1.5   996.2  0.00  0.00   0.063   0.000   24.2    33    6.9   23.4   6.55  .0722    114    1    100.0    5 
23/01/19   2:30    0.1    0.1    0.1    88   -1.7   3.0     N   0.25   8.0     N   -1.4    0.0   -1.5   996.2  0.00  0.00   0.063   0.000   24.2    33    6.9   23.4   6.55  .0722    117    1    100.0    5 
23/01/19   2:35    0.1    0.1    0.1    88   -1.6   3.0     N   0.25   8.0     N   -1.4    0.0   -1.5   996.2  0.00  0.00   0.063   0.000   24.2    33    6.9   23.4   6.55  .0722    115    1    100.0    5 
23/01/19   2:40    0.1    0.1    0.1    88   -1.6   4.0     N   0.33   9.0     N   -2.1    0.0   -2.2   996.3  0.00  0.00   0.063   0.000   24.3    33    7.0   23.6   6.55  .0722    116    1    100.0    5 
23/01/19   2:45    0.1    0.1    0.1    88   -1.6   4.0     N   0.33   8.0     N   -2.1    0.0   -2.2   996.3  0.00  0.00   0.063   0.000   24.2    33    6.9   23.4   6.55  .0722    115    1    100.0    5 
23/01/19   2:50    0.1    0.1    0.1    88   -1.6   3.0     N   0.25   8.0     N   -1.4    0.0   -1.5   996.3  0.00  0.00   0.063   0.000   24.3    33    7.0   23.6   6.55  .0722    116    1    100.0    5 
23/01/19   2:55    0.2    0.2    0.1    88   -1.6   4.0     N   0.33   8.0     N   -2.0    0.1   -2.1   996.3  0.00  0.00   0.063   0.000   24.2    33    6.9   23.4   6.55  .0722    116    1    100.0    5 
23/01/19   3:00    0.2    0.2    0.2    88   -1.5   3.0     N   0.25   9.0     N   -1.2    0.1   -1.3   996.2  0.00  0.00   0.063   0.000   24.2    33    6.9   23.4   6.55  .0722    116    1    100.0    5 
23/01/19   3:05    0.3    0.3    0.2    89   -1.3   5.0     N   0.42  10.0   NNW   -2.4    0.2   -2.5   996.3  0.00  0.00   0.063   0.000   24.2    33    6.9   23.4   6.55  .0722    116    1    100.0    5 
23/01/19   3:10    0.4    0.4    0.3    89   -1.2   5.0     N   0.42  11.0     N   -2.3    0.3   -2.4   996.2  0.00  0.00   0.062   0.000   24.2    33    6.9   23.4   6.55  .0722    116    1    100.0    5 
23/01/19   3:15    0.4    0.4    0.3    88   -1.3   4.0   NNW   0.33  10.0     N   -1.7    0.3   -1.8   996.1  0.00  0.00   0.062   0.000   24.2    33    6.9   23.4   6.55  .0722    117    1    100.0    5 
23/01/19   3:20    0.5    0.5    0.4    88   -1.3   2.0     N   0.17  10.0     N    0.0    0.4   -0.1   996.0  0.00  0.00   0.062   0.000   24.2    33    6.9   23.4   6.55  .0722    116    1    100.0    5 
23/01/19   3:25    0.6    0.6    0.5    88   -1.2   6.0     N   0.50  10.0     N   -2.6    0.4   -2.7   996.0  0.00  0.00   0.062   0.000   24.3    32    6.5   23.5   6.44  .0722    117    1    100.0    5 
23/01/19   3:30    0.6    0.6    0.6    88   -1.2   5.0     N   0.42  11.0     N   -2.1    0.4   -2.2   996.0  0.00  0.00   0.062   0.000   24.3    33    7.0   23.6   6.55  .0721    117    1    100.0    5 
23/01/19   3:35    0.6    0.6    0.6    88   -1.1   6.0     N   0.50  10.0     N   -2.5    0.5   -2.6   996.0  0.00  0.00   0.062   0.000   24.3    33    7.0   23.6   6.55  .0721    117    1    100.0    5 
23/01/19   3:40    0.7    0.7    0.6    89   -0.9   5.0     N   0.42  12.0   NNW   -1.9    0.6   -2.1   996.0  0.00  0.00   0.061   0.000   24.3    33    7.0   23.6   6.55  .0721    116    1    100.0    5 
23/01/19   3:45    0.7    0.7    0.7    89   -0.9   4.0   NNW   0.33  12.0   NNW   -1.4    0.6   -1.5   996.0  0.00  0.00   0.061   0.000   24.3    32    6.6   23.6   6.43  .0721    116    1    100.0    5 
23/01/19   3:50    0.7    0.7    0.7    89   -0.9   2.0   NNW   0.17   7.0   NNW    0.2    0.6    0.1   996.0  0.00  0.00   0.061   0.000   24.3    32    6.5   23.5   6.44  .0722    117    1    100.0    5 
23/01/19   3:55    0.7    0.7    0.7    89   -0.9   3.0   NNW   0.25  11.0   NNW   -0.7    0.6   -0.8   996.0  0.00  0.00   0.061   0.000   24.3    32    6.6   23.6   6.43  .0721    116    1    100.0    5 
23/01/19   4:00    0.7    0.7    0.7    89   -0.9   4.0    NW   0.33   9.0    NW   -1.3    0.6   -1.4   996.0  0.00  0.00   0.061   0.000   24.3    32    6.6   23.6   6.43  .0721    117    1    100.0    5 
23/01/19   4:05    0.7    0.7    0.7    89   -0.9   4.0   NNW   0.33  10.0   NNW   -1.3    0.6   -1.4   996.1  0.00  0.00   0.061   0.000   24.3    32    6.6   23.6   6.43  .0722    116    1    100.0    5 
23/01/19   4:10    0.7    0.7    0.7    89   -0.9   4.0    NW   0.33  12.0    NW   -1.3    0.6   -1.4   996.2  0.00  0.00   0.061   0.000   24.3    32    6.5   23.5   6.44  .0722    116    1    100.0    5 
23/01/19   4:15    0.7    0.7    0.7    89   -0.9   5.0   NNW   0.42  12.0   NNW   -1.9    0.6   -2.0   996.4  0.00  0.00   0.061   0.000   24.2    32    6.5   23.4   6.44  .0722    117    1    100.0    5 
23/01/19   4:20    0.7    0.8    0.7    88   -1.0   4.0    NW   0.33   9.0   NNW   -1.3    0.6   -1.4   996.4  0.00  0.00   0.061   0.000   24.2    32    6.4   23.4   6.44  .0722    117    1    100.0    5 
23/01/19   4:25    0.8    0.8    0.7    88   -1.0   5.0   NNW   0.42  10.0    NW   -1.8    0.7   -1.9   996.6  0.00  0.00   0.061   0.000   24.1    32    6.3   23.2   6.44  .0723    117    1    100.0    5 
23/01/19   4:30    0.8    0.8    0.8    88   -1.0   5.0   NNW   0.42  11.0     N   -1.8    0.7   -1.9   996.5  0.00  0.00   0.061   0.000   24.1    32    6.3   23.2   6.44  .0723     86    1     75.4    5 
23/01/19   4:35    0.8    0.8    0.8    88   -1.0   5.0   NNW   0.42  12.0   NNW   -1.8    0.7   -1.9   996.7  0.00  0.00   0.061   0.000   24.1    32    6.3   23.2   6.44  .0723    116    1    100.0    5 
23/01/19   4:40    0.8    0.8    0.8    88   -0.9   2.0   NNW   0.17   8.0   NNW    0.3    0.7    0.2   996.7  0.00  0.00   0.061   0.000   24.1    32    6.4   23.3   6.44  .0723    118    1    100.0    5 
23/01/19   4:45    0.8    0.8    0.8    88   -0.9   1.0   NNW   0.08   6.0   NNW    0.8    0.7    0.7   996.7  0.00  0.00   0.061   0.000   24.1    32    6.4   23.3   6.44  .0723    116    1    100.0    5 
23/01/19   4:50    0.8    0.8    0.8    88   -0.9   2.0   NNW   0.17   6.0   NNW    0.3    0.7    0.2   996.8  0.00  0.00   0.061   0.000   24.2    32    6.4   23.4   6.44  .0722    115    1    100.0    5 
23/01/19   4:55    0.8    0.8    0.8    88   -0.9   3.0   NNW   0.25   8.0   NNW   -0.6    0.7   -0.7   996.8  0.00  0.00   0.061   0.000   24.2    32    6.4   23.4   6.44  .0722    116    1    100.0    5 
23/01/19   5:00    0.8    0.8    0.8    88   -0.9   2.0   NNW   0.17   6.0   NNW    0.3    0.7    0.2   996.8  0.00  0.00   0.061   0.000   24.2    32    6.5   23.4   6.44  .0722    116    1    100.0    5 
23/01/19   5:05    0.8    0.8    0.8    88   -0.9   2.0    NW   0.17   7.0    NW    0.3    0.7    0.2   996.8  0.00  0.00   0.061   0.000   24.2    32    6.5   23.4   6.44  .0722    116    1    100.0    5 
23/01/19   5:10    0.8    0.8    0.8    88   -1.0   2.0   WNW   0.17   7.0    NW    0.3    0.7    0.2   996.9  0.00  0.00   0.061   0.000   24.2    32    6.5   23.4   6.44  .0722    116    1    100.0    5 
23/01/19   5:15    0.8    0.8    0.8    88   -1.0   1.0   WNW   0.08   6.0   WNW    0.8    0.7    0.7   996.8  0.00  0.00   0.061   0.000   24.2    32    6.5   23.4   6.44  .0722    117    1    100.0    5 
23/01/19   5:20    0.8    0.8    0.8    88   -1.0   1.0   WNW   0.08   6.0   WNW    0.8    0.7    0.7   996.8  0.00  0.00   0.061   0.000   24.2    33    6.9   23.4   6.55  .0722    115    1    100.0    5 
23/01/19   5:25    0.8    0.8    0.8    88   -0.9   3.0   NNW   0.25   9.0   NNW   -0.6    0.7   -0.7   996.9  0.00  0.00   0.061   0.000   24.2    33    6.9   23.4   6.55  .0722    114    1    100.0    5 
23/01/19   5:30    0.8    0.8    0.8    88   -0.9   2.0   NNW   0.17   8.0   NNW    0.3    0.7    0.2   997.0  0.00  0.00   0.061   0.000   24.3    33    7.0   23.6   6.55  .0722    116    1    100.0    5 
23/01/19   5:35    0.8    0.8    0.8    88   -0.9   2.0   NNW   0.17   6.0   NNW    0.3    0.7    0.2   997.0  0.00  0.00   0.061   0.000   24.2    32    6.5   23.4   6.44  .0722    116    1    100.0    5 
23/01/19   5:40    0.8    0.9    0.8    88   -0.9   5.0   NNW   0.42  10.0    NW   -1.8    0.7   -1.9   997.1  0.00  0.00   0.061   0.000   24.2    32    6.5   23.4   6.44  .0723    117    1    100.0    5 
23/01/19   5:45    0.8    0.9    0.8    88   -0.9   5.0    NW   0.42  11.0    NW   -1.8    0.7   -1.9   997.1  0.00  0.00   0.061   0.000   24.1    31    5.9   23.3   6.24  .0723    118    1    100.0    5 
23/01/19   5:50    0.9    0.9    0.8    88   -0.9   2.0    NW   0.17   8.0    NW    0.4    0.8    0.3   997.2  0.00  0.00   0.061   0.000   24.1    32    6.3   23.2   6.44  .0723    117    1    100.0    5 
23/01/19   5:55    0.9    0.9    0.8    88   -0.9   2.0    NW   0.17   7.0    NW    0.4    0.8    0.3   997.2  0.00  0.00   0.061   0.000   24.1    32    6.3   23.2   6.44  .0723    117    1    100.0    5 
23/01/19   6:00    0.9    0.9    0.9    88   -0.8   1.0    NW   0.08   6.0    NW    0.9    0.8    0.8   997.1  0.00  0.00   0.060   0.000   24.1    32    6.3   23.2   6.44  .0723    116    1    100.0    5 
23/01/19   6:05    0.9    0.9    0.9    88   -0.8   2.0   NNW   0.17   7.0    NW    0.4    0.8    0.3   997.2  0.00  0.00   0.060   0.000   24.1    32    6.4   23.3   6.44  .0723    117    1    100.0    5 
23/01/19   6:10    0.9    0.9    0.9    89   -0.7   1.0   NNW   0.08   5.0   NNW    0.9    0.8    0.8   997.2  0.00  0.00   0.060   0.000   24.2    32    6.4   23.4   6.44  .0723    117    1    100.0    5 
23/01/19   6:15    1.0    1.0    0.9    88   -0.8   1.0   NNW   0.08   6.0   NNW    1.0    0.9    0.9   997.2  0.00  0.00   0.060   0.000   24.2    32    6.4   23.4   6.44  .0723    116    1    100.0    5 
23/01/19   6:20    1.0    1.0    0.9    88   -0.8   3.0   NNW   0.25   8.0    NW   -0.3    0.9   -0.4   997.2  0.00  0.00   0.060   0.000   24.2    32    6.5   23.4   6.44  .0723    116    1    100.0    5 
23/01/19   6:25    1.0    1.0    1.0    88   -0.8   4.0   NNW   0.33  12.0   NNW   -1.0    0.9   -1.1   997.3  0.00  0.00   0.060   0.000   24.2    32    6.5   23.4   6.44  .0723    117    1    100.0    5 
23/01/19   6:30    0.9    1.0    0.9    88   -0.8   2.0   NNW   0.17   8.0   NNW    0.4    0.8    0.3   997.3  0.00  0.00   0.060   0.000   24.2    32    6.5   23.4   6.44  .0723    117    1    100.0    5 
23/01/19   6:35    1.0    1.0    0.9    88   -0.8   2.0   NNW   0.17   9.0   NNW    0.5    0.9    0.4   997.4  0.00  0.00   0.060   0.000   24.2    32    6.5   23.4   6.44  .0723    116    1    100.0    5 
23/01/19   6:40    1.0    1.0    1.0    88   -0.8   1.0   NNW   0.08   6.0   NNW    1.0    0.9    0.9   997.5  0.00  0.00   0.060   0.000   24.3    32    6.5   23.5   6.44  .0723    117    1    100.0    5 
23/01/19   6:45    1.0    1.0    1.0    88   -0.8   3.0   NNW   0.25   8.0   NNW   -0.3    0.9   -0.4   997.5  0.00  0.00   0.060   0.000   24.3    32    6.5   23.5   6.44  .0723    117    1    100.0    5 
23/01/19   6:50    1.0    1.0    1.0    88   -0.8   3.0   NNW   0.25   9.0   NNW   -0.3    0.9   -0.4   997.7  0.00  0.00   0.060   0.000   24.3    32    6.5   23.5   6.44  .0723    117    1    100.0    5 
23/01/19   6:55    1.0    1.0    1.0    88   -0.8   3.0   NNW   0.25  10.0    NW   -0.3    0.9   -0.4   997.8  0.00  0.00   0.060   0.000   24.3    32    6.5   23.5   6.44  .0723    117    1    100.0    5 
23/01/19   7:00    1.0    1.0    1.0    88   -0.8   2.0   NNW   0.17   8.0   NNW    0.5    0.9    0.4   997.9  0.00  0.00   0.060   0.000   24.3    32    6.5   23.5   6.44  .0723    116    1    100.0    5 
23/01/19   7:05    1.0    1.0    1.0    88   -0.8   2.0   NNW   0.17   6.0   NNW    0.5    0.9    0.4   997.9  0.00  0.00   0.060   0.000   24.3    31    6.1   23.4   6.24  .0723    116    1    100.0    5 
23/01/19   7:10    1.0    1.0    1.0    88   -0.8   2.0   NNW   0.17   8.0    NW    0.5    0.9    0.4   998.0  0.00  0.00   0.060   0.000   24.3    31    6.1   23.4   6.24  .0723    114    1    100.0    5 
23/01/19   7:15    0.9    1.0    0.9    88   -0.8   2.0    NW   0.17   7.0    NW    0.4    0.8    0.3   998.1  0.00  0.00   0.060   0.000   24.2    31    6.0   23.4   6.24  .0723    117    1    100.0    5 
23/01/19   7:20    0.9    1.0    0.9    88   -0.8   1.0    NW   0.08   6.0    NW    0.9    0.8    0.8   998.2  0.00  0.00   0.060   0.000   24.2    32    6.5   23.4   6.44  .0723    116    1    100.0    5 
23/01/19   7:25    0.9    0.9    0.9    88   -0.8   3.0    NW   0.25   8.0    NW   -0.4    0.8   -0.6   998.3  0.00  0.00   0.060   0.000   24.2    32    6.5   23.4   6.44  .0723    117    1    100.0    5 
23/01/19   7:30    0.9    1.0    0.9    88   -0.8   4.0   NNW   0.33  10.0    NW   -1.1    0.8   -1.2   998.3  0.00  0.00   0.060   0.000   24.2    31    6.0   23.4   6.24  .0724    115    1    100.0    5 
23/01/19   7:35    1.0    1.0    0.9    88   -0.8   3.0    NW   0.25   9.0   NNW   -0.3    0.9   -0.4   998.4  0.00  0.00   0.060   0.000   24.2    31    6.0   23.4   6.24  .0724    116    1    100.0    5 
23/01/19   7:40    1.0    1.0    1.0    88   -0.8   2.0   NNW   0.17   7.0    NW    0.5    0.9    0.4   998.5  0.00  0.00   0.060   0.000   24.2    32    6.5   23.4   6.44  .0724    117    1    100.0    5 
23/01/19   7:45    1.0    1.0    1.0    88   -0.8   3.0   NNW   0.25   9.0   NNW   -0.3    0.9   -0.4   998.6  0.00  0.00   0.060   0.000   24.3    32    6.6   23.6   6.43  .0723    116    1    100.0    5 
23/01/19   7:50    1.1    1.1    1.0    88   -0.7   5.0   NNW   0.42  11.0   NNW   -1.5    0.9   -1.6   998.5  0.00  0.00   0.060   0.000   24.3    32    6.6   23.6   6.43  .0723    117    1    100.0    5 
23/01/19   7:55    1.0    1.1    1.0    88   -0.8   3.0   NNW   0.25   8.0   NNW   -0.3    0.9   -0.4   998.5  0.00  0.00   0.060   0.000   24.4    32    6.6   23.6   6.43  .0723    118    1    100.0    5 
23/01/19   8:00    1.1    1.1    1.0    88   -0.7   1.0   NNW   0.08   5.0   NNW    1.1    0.9    0.9   998.5  0.00  0.00   0.060   0.000   24.4    34    7.5   23.7   6.73  .0723    114    1    100.0    5 
23/01/19   8:05    1.1    1.1    1.1    88   -0.7   2.0     N   0.17  11.0     N    0.6    0.9    0.5   998.5  0.00  0.00   0.060   0.000   24.4    33    7.1   23.7   6.55  .0723    117    1    100.0    5 
23/01/19   8:10    1.1    1.1    1.1    88   -0.7   1.0   NNW   0.08   7.0     N    1.1    0.9    0.9   998.6  0.00  0.00   0.060   0.000   24.4    33    7.1   23.7   6.55  .0723    117    1    100.0    5 
23/01/19   8:15    1.1    1.1    1.1    88   -0.7   2.0   NNW   0.17  10.0   NNW    0.6    0.9    0.5   998.6  0.00  0.00   0.060   0.000   24.5    33    7.2   23.8   6.55  .0723    116    1    100.0    5 
23/01/19   8:20    1.1    1.1    1.1    88   -0.7   3.0   NNW   0.25   7.0   NNW   -0.3    0.9   -0.4   998.7  0.00  0.00   0.060   0.000   24.5    32    6.7   23.7   6.43  .0723    117    1    100.0    5 
23/01/19   8:25    1.1    1.1    1.1    88   -0.7   1.0   NNW   0.08   7.0     N    1.1    1.0    1.0   998.7  0.00  0.00   0.060   0.000   24.4    32    6.7   23.7   6.43  .0723    116    1    100.0    5 
23/01/19   8:30    1.1    1.1    1.1    88   -0.7   2.0     N   0.17   8.0     N    0.7    1.0    0.6   998.7  0.00  0.00   0.060   0.000   24.4    32    6.7   23.7   6.43  .0723    117    1    100.0    5 
23/01/19   8:35    1.1    1.1    1.1    88   -0.7   1.0     N   0.08   9.0     N    1.1    0.9    0.9   998.7  0.00  0.00   0.060   0.000   24.4    32    6.7   23.7   6.43  .0723    117    1    100.0    5 
23/01/19   8:40    1.1    1.1    1.1    88   -0.7   2.0   NNE   0.17  10.0   NNE    0.6    0.9    0.5   998.8  0.00  0.00   0.060   0.000   24.4    32    6.7   23.7   6.43  .0723    117    1    100.0    5 
23/01/19   8:45    1.1    1.1    1.1    88   -0.7   4.0   NNE   0.33  12.0   NNW   -0.9    0.9   -1.1   998.9  0.00  0.00   0.060   0.000   24.5    31    6.3   23.7   6.23  .0723    117    1    100.0    5 
23/01/19   8:50    1.1    1.1    1.1    88   -0.7   3.0   NNW   0.25  12.0   NNE   -0.3    0.9   -0.4   999.0  0.00  0.00   0.060   0.000   24.4    31    6.2   23.7   6.23  .0724    117    1    100.0    5 
23/01/19   8:55    1.1    1.1    1.1    88   -0.7   3.0   NNW   0.25  10.0   NNW   -0.3    0.9   -0.4   999.1  0.00  0.00   0.060   0.000   24.4    32    6.7   23.7   6.43  .0723    115    1    100.0    5 
81990